<?xml version="1.0" encoding="UTF-8"?>
<gpx xmlns="http://www.topografix.com/GPX/1/1" xmlns:xsi="http://www.w3.org/2001/XMLSchema-instance" version="1.1" xsi:schemaLocation="http://www.topografix.com/GPX/1/1 http://www.topografix.com/GPX/1/1/gpx.xsd">
  <metadata>
    <name>Cactus Man Triathlon 2023 - Olympic Aquabike</name>
  </metadata>
  <trk>
    <name>Cactus Man Triathlon 2023 - Olympic Aquabike</name>
    <trkseg>
      <trkpt lat="33.431373" lon="-111.94559">
        <ele>349.200005</ele>
        <time>2024-04-28T07:00:00.000Z</time>
      </trkpt>
      <trkpt lat="33.431071" lon="-111.946759">
        <ele>349.201489</ele>
        <time>2024-04-28T07:00:11.000Z</time>
      </trkpt>
      <trkpt lat="33.430935" lon="-111.947368">
        <ele>349.208329</ele>
        <time>2024-04-28T07:00:17.000Z</time>
      </trkpt>
      <trkpt lat="33.430915" lon="-111.947458">
        <ele>349.20934</ele>
        <time>2024-04-28T07:00:18.000Z</time>
      </trkpt>
      <trkpt lat="33.430831" lon="-111.948289">
        <ele>349.21831</ele>
        <time>2024-04-28T07:00:26.000Z</time>
      </trkpt>
      <trkpt lat="33.430834" lon="-111.949277">
        <ele>349.302927</ele>
        <time>2024-04-28T07:00:35.000Z</time>
      </trkpt>
      <trkpt lat="33.430853" lon="-111.949456">
        <ele>349.330943</ele>
        <time>2024-04-28T07:00:37.000Z</time>
      </trkpt>
      <trkpt lat="33.430883" lon="-111.949618">
        <ele>349.357528</ele>
        <time>2024-04-28T07:00:39.000Z</time>
      </trkpt>
      <trkpt lat="33.431058" lon="-111.951589">
        <ele>349.477022</ele>
        <time>2024-04-28T07:00:57.000Z</time>
      </trkpt>
      <trkpt lat="33.431025" lon="-111.952282">
        <ele>349.404</ele>
        <time>2024-04-28T07:01:03.000Z</time>
      </trkpt>
      <trkpt lat="33.431" lon="-111.952429">
        <ele>349.389134</ele>
        <time>2024-04-28T07:01:04.000Z</time>
      </trkpt>
      <trkpt lat="33.430608" lon="-111.954176">
        <ele>348.804098</ele>
        <time>2024-04-28T07:01:21.000Z</time>
      </trkpt>
      <trkpt lat="33.430583" lon="-111.954737">
        <ele>348.554433</ele>
        <time>2024-04-28T07:01:26.000Z</time>
      </trkpt>
      <trkpt lat="33.430635" lon="-111.95548">
        <ele>348.322275</ele>
        <time>2024-04-28T07:01:33.000Z</time>
      </trkpt>
      <trkpt lat="33.430853" lon="-111.956623">
        <ele>348.116663</ele>
        <time>2024-04-28T07:01:44.000Z</time>
      </trkpt>
      <trkpt lat="33.430901" lon="-111.957306">
        <ele>348.008099</ele>
        <time>2024-04-28T07:01:50.000Z</time>
      </trkpt>
      <trkpt lat="33.430806" lon="-111.958081">
        <ele>348.005029</ele>
        <time>2024-04-28T07:01:57.000Z</time>
      </trkpt>
      <trkpt lat="33.430545" lon="-111.958807">
        <ele>348.002028</ele>
        <time>2024-04-28T07:02:04.000Z</time>
      </trkpt>
      <trkpt lat="33.430418" lon="-111.959083">
        <ele>348.000811</ele>
        <time>2024-04-28T07:02:07.000Z</time>
      </trkpt>
      <trkpt lat="33.43022" lon="-111.959518">
        <ele>347.998755</ele>
        <time>2024-04-28T07:02:12.000Z</time>
      </trkpt>
      <trkpt lat="33.430083" lon="-111.959785">
        <ele>347.997364</ele>
        <time>2024-04-28T07:02:15.000Z</time>
      </trkpt>
      <trkpt lat="33.429997" lon="-111.959961">
        <ele>347.996491</ele>
        <time>2024-04-28T07:02:17.000Z</time>
      </trkpt>
      <trkpt lat="33.429899" lon="-111.960197">
        <ele>347.995348</ele>
        <time>2024-04-28T07:02:19.000Z</time>
      </trkpt>
      <trkpt lat="33.429692" lon="-111.960733">
        <ele>347.992765</ele>
        <time>2024-04-28T07:02:24.000Z</time>
      </trkpt>
      <trkpt lat="33.429644" lon="-111.960961">
        <ele>347.991746</ele>
        <time>2024-04-28T07:02:26.000Z</time>
      </trkpt>
      <trkpt lat="33.429745" lon="-111.960974">
        <ele>347.991228</ele>
        <time>2024-04-28T07:02:27.000Z</time>
      </trkpt>
      <trkpt lat="33.430163" lon="-111.960977">
        <ele>347.940977</ele>
        <time>2024-04-28T07:02:32.000Z</time>
      </trkpt>
      <trkpt lat="33.43022" lon="-111.960977">
        <ele>347.929531</ele>
        <time>2024-04-28T07:02:33.000Z</time>
      </trkpt>
      <trkpt lat="33.430322" lon="-111.960977">
        <ele>347.914283</ele>
        <time>2024-04-28T07:02:34.000Z</time>
      </trkpt>
      <trkpt lat="33.43088" lon="-111.961051">
        <ele>347.820122</ele>
        <time>2024-04-28T07:02:40.000Z</time>
      </trkpt>
      <trkpt lat="33.431262" lon="-111.9611">
        <ele>347.755934</ele>
        <time>2024-04-28T07:02:44.000Z</time>
      </trkpt>
      <trkpt lat="33.431596" lon="-111.961159">
        <ele>347.700885</ele>
        <time>2024-04-28T07:02:48.000Z</time>
      </trkpt>
      <trkpt lat="33.431711" lon="-111.961095">
        <ele>347.663636</ele>
        <time>2024-04-28T07:02:49.000Z</time>
      </trkpt>
      <trkpt lat="33.433422" lon="-111.961111">
        <ele>347.015506</ele>
        <time>2024-04-28T07:03:08.000Z</time>
      </trkpt>
      <trkpt lat="33.433895" lon="-111.961087">
        <ele>346.929108</ele>
        <time>2024-04-28T07:03:13.000Z</time>
      </trkpt>
      <trkpt lat="33.436476" lon="-111.960834">
        <ele>346.700296</ele>
        <time>2024-04-28T07:03:42.000Z</time>
      </trkpt>
      <trkpt lat="33.436604" lon="-111.960812">
        <ele>346.700569</ele>
        <time>2024-04-28T07:03:43.000Z</time>
      </trkpt>
      <trkpt lat="33.436733" lon="-111.96081">
        <ele>346.70086</ele>
        <time>2024-04-28T07:03:44.000Z</time>
      </trkpt>
      <trkpt lat="33.43703" lon="-111.960785">
        <ele>346.707035</ele>
        <time>2024-04-28T07:03:47.000Z</time>
      </trkpt>
      <trkpt lat="33.437133" lon="-111.960776">
        <ele>346.727868</ele>
        <time>2024-04-28T07:03:48.000Z</time>
      </trkpt>
      <trkpt lat="33.437125" lon="-111.960787">
        <ele>346.727856</ele>
        <time>2024-04-28T07:03:48.000Z</time>
      </trkpt>
      <trkpt lat="33.43699" lon="-111.959786">
        <ele>346.93025</ele>
        <time>2024-04-28T07:03:57.000Z</time>
      </trkpt>
      <trkpt lat="33.437007" lon="-111.959786">
        <ele>346.93026</ele>
        <time>2024-04-28T07:03:57.000Z</time>
      </trkpt>
      <trkpt lat="33.436835" lon="-111.958953">
        <ele>347.104785</ele>
        <time>2024-04-28T07:04:05.000Z</time>
      </trkpt>
      <trkpt lat="33.436673" lon="-111.958119">
        <ele>347.29436</ele>
        <time>2024-04-28T07:04:13.000Z</time>
      </trkpt>
      <trkpt lat="33.436494" lon="-111.957266">
        <ele>347.487435</ele>
        <time>2024-04-28T07:04:21.000Z</time>
      </trkpt>
      <trkpt lat="33.43633" lon="-111.956431">
        <ele>347.651581</ele>
        <time>2024-04-28T07:04:29.000Z</time>
      </trkpt>
      <trkpt lat="33.436159" lon="-111.955603">
        <ele>347.753872</ele>
        <time>2024-04-28T07:04:37.000Z</time>
      </trkpt>
      <trkpt lat="33.43617" lon="-111.9556">
        <ele>347.753868</ele>
        <time>2024-04-28T07:04:37.000Z</time>
      </trkpt>
      <trkpt lat="33.435948" lon="-111.954647">
        <ele>347.869988</ele>
        <time>2024-04-28T07:04:46.000Z</time>
      </trkpt>
      <trkpt lat="33.435949" lon="-111.954642">
        <ele>347.869994</ele>
        <time>2024-04-28T07:04:46.000Z</time>
      </trkpt>
      <trkpt lat="33.435872" lon="-111.953629">
        <ele>347.917097</ele>
        <time>2024-04-28T07:04:55.000Z</time>
      </trkpt>
      <trkpt lat="33.435784" lon="-111.952594">
        <ele>347.961431</ele>
        <time>2024-04-28T07:05:05.000Z</time>
      </trkpt>
      <trkpt lat="33.435691" lon="-111.951585">
        <ele>348.216517</ele>
        <time>2024-04-28T07:05:14.000Z</time>
      </trkpt>
      <trkpt lat="33.435694" lon="-111.951576">
        <ele>348.216531</ele>
        <time>2024-04-28T07:05:14.000Z</time>
      </trkpt>
      <trkpt lat="33.435617" lon="-111.950597">
        <ele>348.492487</ele>
        <time>2024-04-28T07:05:23.000Z</time>
      </trkpt>
      <trkpt lat="33.435537" lon="-111.949603">
        <ele>348.958214</ele>
        <time>2024-04-28T07:05:32.000Z</time>
      </trkpt>
      <trkpt lat="33.43558" lon="-111.949613">
        <ele>348.977167</ele>
        <time>2024-04-28T07:05:32.000Z</time>
      </trkpt>
      <trkpt lat="33.435694" lon="-111.949595">
        <ele>349.057613</ele>
        <time>2024-04-28T07:05:33.000Z</time>
      </trkpt>
      <trkpt lat="33.43653" lon="-111.949527">
        <ele>349.601625</ele>
        <time>2024-04-28T07:05:42.000Z</time>
      </trkpt>
      <trkpt lat="33.436623" lon="-111.949535">
        <ele>349.668296</ele>
        <time>2024-04-28T07:05:43.000Z</time>
      </trkpt>
      <trkpt lat="33.436836" lon="-111.949517">
        <ele>349.822001</ele>
        <time>2024-04-28T07:05:45.000Z</time>
      </trkpt>
      <trkpt lat="33.437198" lon="-111.9494">
        <ele>350.188217</ele>
        <time>2024-04-28T07:05:49.000Z</time>
      </trkpt>
      <trkpt lat="33.437406" lon="-111.94938">
        <ele>350.382271</ele>
        <time>2024-04-28T07:05:51.000Z</time>
      </trkpt>
      <trkpt lat="33.437898" lon="-111.949315">
        <ele>350.872618</ele>
        <time>2024-04-28T07:05:57.000Z</time>
      </trkpt>
      <trkpt lat="33.438495" lon="-111.949131">
        <ele>351.456207</ele>
        <time>2024-04-28T07:06:04.000Z</time>
      </trkpt>
      <trkpt lat="33.43907" lon="-111.948842">
        <ele>351.864903</ele>
        <time>2024-04-28T07:06:11.000Z</time>
      </trkpt>
      <trkpt lat="33.439176" lon="-111.948786">
        <ele>351.942599</ele>
        <time>2024-04-28T07:06:12.000Z</time>
      </trkpt>
      <trkpt lat="33.439353" lon="-111.948683">
        <ele>352.071586</ele>
        <time>2024-04-28T07:06:14.000Z</time>
      </trkpt>
      <trkpt lat="33.439368" lon="-111.948658">
        <ele>352.089529</ele>
        <time>2024-04-28T07:06:14.000Z</time>
      </trkpt>
      <trkpt lat="33.439372" lon="-111.948676">
        <ele>352.092549</ele>
        <time>2024-04-28T07:06:14.000Z</time>
      </trkpt>
      <trkpt lat="33.43944" lon="-111.948833">
        <ele>352.19207</ele>
        <time>2024-04-28T07:06:16.000Z</time>
      </trkpt>
      <trkpt lat="33.439728" lon="-111.949702">
        <ele>352.614396</ele>
        <time>2024-04-28T07:06:25.000Z</time>
      </trkpt>
      <trkpt lat="33.439804" lon="-111.950052">
        <ele>352.525487</ele>
        <time>2024-04-28T07:06:28.000Z</time>
      </trkpt>
      <trkpt lat="33.43987" lon="-111.950274">
        <ele>352.470164</ele>
        <time>2024-04-28T07:06:30.000Z</time>
      </trkpt>
      <trkpt lat="33.439967" lon="-111.950834">
        <ele>352.325388</ele>
        <time>2024-04-28T07:06:35.000Z</time>
      </trkpt>
      <trkpt lat="33.440384" lon="-111.953014">
        <ele>351.628228</ele>
        <time>2024-04-28T07:06:56.000Z</time>
      </trkpt>
      <trkpt lat="33.440471" lon="-111.953482">
        <ele>351.46013</ele>
        <time>2024-04-28T07:07:00.000Z</time>
      </trkpt>
      <trkpt lat="33.440583" lon="-111.95401">
        <ele>351.33986</ele>
        <time>2024-04-28T07:07:05.000Z</time>
      </trkpt>
      <trkpt lat="33.440748" lon="-111.954437">
        <ele>351.324174</ele>
        <time>2024-04-28T07:07:09.000Z</time>
      </trkpt>
      <trkpt lat="33.440778" lon="-111.954532">
        <ele>351.320798</ele>
        <time>2024-04-28T07:07:10.000Z</time>
      </trkpt>
      <trkpt lat="33.440837" lon="-111.954651">
        <ele>351.316358</ele>
        <time>2024-04-28T07:07:11.000Z</time>
      </trkpt>
      <trkpt lat="33.441158" lon="-111.955174">
        <ele>351.294458</ele>
        <time>2024-04-28T07:07:17.000Z</time>
      </trkpt>
      <trkpt lat="33.44153" lon="-111.955564">
        <ele>351.28026</ele>
        <time>2024-04-28T07:07:22.000Z</time>
      </trkpt>
      <trkpt lat="33.441713" lon="-111.955702">
        <ele>351.356656</ele>
        <time>2024-04-28T07:07:24.000Z</time>
      </trkpt>
      <trkpt lat="33.442045" lon="-111.955978">
        <ele>351.506355</ele>
        <time>2024-04-28T07:07:28.000Z</time>
      </trkpt>
      <trkpt lat="33.442149" lon="-111.956049">
        <ele>351.551226</ele>
        <time>2024-04-28T07:07:29.000Z</time>
      </trkpt>
      <trkpt lat="33.442516" lon="-111.956362">
        <ele>351.712392</ele>
        <time>2024-04-28T07:07:34.000Z</time>
      </trkpt>
      <trkpt lat="33.442614" lon="-111.956454">
        <ele>351.761659</ele>
        <time>2024-04-28T07:07:35.000Z</time>
      </trkpt>
      <trkpt lat="33.442724" lon="-111.956544">
        <ele>351.811995</ele>
        <time>2024-04-28T07:07:36.000Z</time>
      </trkpt>
      <trkpt lat="33.442619" lon="-111.956764">
        <ele>351.88868</ele>
        <time>2024-04-28T07:07:38.000Z</time>
      </trkpt>
      <trkpt lat="33.442556" lon="-111.956902">
        <ele>351.932655</ele>
        <time>2024-04-28T07:07:39.000Z</time>
      </trkpt>
      <trkpt lat="33.442029" lon="-111.95779">
        <ele>351.814631</ele>
        <time>2024-04-28T07:07:49.000Z</time>
      </trkpt>
      <trkpt lat="33.441646" lon="-111.958416">
        <ele>351.730263</ele>
        <time>2024-04-28T07:07:56.000Z</time>
      </trkpt>
      <trkpt lat="33.440795" lon="-111.959858">
        <ele>350.464303</ele>
        <time>2024-04-28T07:08:12.000Z</time>
      </trkpt>
      <trkpt lat="33.440233" lon="-111.960438">
        <ele>349.702766</ele>
        <time>2024-04-28T07:08:20.000Z</time>
      </trkpt>
      <trkpt lat="33.439794" lon="-111.960703">
        <ele>349.164492</ele>
        <time>2024-04-28T07:08:25.000Z</time>
      </trkpt>
      <trkpt lat="33.439431" lon="-111.960837">
        <ele>348.713707</ele>
        <time>2024-04-28T07:08:29.000Z</time>
      </trkpt>
      <trkpt lat="33.439146" lon="-111.960898">
        <ele>348.396097</ele>
        <time>2024-04-28T07:08:32.000Z</time>
      </trkpt>
      <trkpt lat="33.438642" lon="-111.960932">
        <ele>347.843668</ele>
        <time>2024-04-28T07:08:38.000Z</time>
      </trkpt>
      <trkpt lat="33.438536" lon="-111.960945">
        <ele>347.755305</ele>
        <time>2024-04-28T07:08:39.000Z</time>
      </trkpt>
      <trkpt lat="33.438457" lon="-111.960945">
        <ele>347.699412</ele>
        <time>2024-04-28T07:08:40.000Z</time>
      </trkpt>
      <trkpt lat="33.437884" lon="-111.960996">
        <ele>347.247716</ele>
        <time>2024-04-28T07:08:46.000Z</time>
      </trkpt>
      <trkpt lat="33.437369" lon="-111.961031">
        <ele>346.847993</ele>
        <time>2024-04-28T07:08:52.000Z</time>
      </trkpt>
      <trkpt lat="33.437261" lon="-111.961035">
        <ele>346.76575</ele>
        <time>2024-04-28T07:08:53.000Z</time>
      </trkpt>
      <trkpt lat="33.43716" lon="-111.961037">
        <ele>346.685032</ele>
        <time>2024-04-28T07:08:54.000Z</time>
      </trkpt>
      <trkpt lat="33.43705" lon="-111.96105">
        <ele>346.605908</ele>
        <time>2024-04-28T07:08:55.000Z</time>
      </trkpt>
      <trkpt lat="33.436789" lon="-111.961073">
        <ele>346.48669</ele>
        <time>2024-04-28T07:08:58.000Z</time>
      </trkpt>
      <trkpt lat="33.433938" lon="-111.961216">
        <ele>346.872537</ele>
        <time>2024-04-28T07:09:30.000Z</time>
      </trkpt>
      <trkpt lat="33.433389" lon="-111.961245">
        <ele>347.026042</ele>
        <time>2024-04-28T07:09:36.000Z</time>
      </trkpt>
      <trkpt lat="33.432071" lon="-111.961275">
        <ele>347.579063</ele>
        <time>2024-04-28T07:09:51.000Z</time>
      </trkpt>
      <trkpt lat="33.431709" lon="-111.961243">
        <ele>347.733743</ele>
        <time>2024-04-28T07:09:55.000Z</time>
      </trkpt>
      <trkpt lat="33.431604" lon="-111.961155">
        <ele>347.795828</ele>
        <time>2024-04-28T07:09:56.000Z</time>
      </trkpt>
      <trkpt lat="33.431273" lon="-111.961096">
        <ele>347.851068</ele>
        <time>2024-04-28T07:10:00.000Z</time>
      </trkpt>
      <trkpt lat="33.430877" lon="-111.961046">
        <ele>347.888697</ele>
        <time>2024-04-28T07:10:04.000Z</time>
      </trkpt>
      <trkpt lat="33.430313" lon="-111.960974">
        <ele>347.943869</ele>
        <time>2024-04-28T07:10:10.000Z</time>
      </trkpt>
      <trkpt lat="33.430218" lon="-111.960965">
        <ele>347.952794</ele>
        <time>2024-04-28T07:10:11.000Z</time>
      </trkpt>
      <trkpt lat="33.430153" lon="-111.960961">
        <ele>347.959493</ele>
        <time>2024-04-28T07:10:12.000Z</time>
      </trkpt>
      <trkpt lat="33.429742" lon="-111.960964">
        <ele>347.99985</ele>
        <time>2024-04-28T07:10:17.000Z</time>
      </trkpt>
      <trkpt lat="33.429644" lon="-111.960957">
        <ele>348.00002</ele>
        <time>2024-04-28T07:10:18.000Z</time>
      </trkpt>
      <trkpt lat="33.429503" lon="-111.960964">
        <ele>348.000013</ele>
        <time>2024-04-28T07:10:20.000Z</time>
      </trkpt>
      <trkpt lat="33.429569" lon="-111.960736">
        <ele>348.000018</ele>
        <time>2024-04-28T07:10:22.000Z</time>
      </trkpt>
      <trkpt lat="33.429703" lon="-111.960345">
        <ele>348.000005</ele>
        <time>2024-04-28T07:10:26.000Z</time>
      </trkpt>
      <trkpt lat="33.42971" lon="-111.960308">
        <ele>348.000015</ele>
        <time>2024-04-28T07:10:26.000Z</time>
      </trkpt>
      <trkpt lat="33.429959" lon="-111.959783">
        <ele>348.000015</ele>
        <time>2024-04-28T07:10:32.000Z</time>
      </trkpt>
      <trkpt lat="33.430034" lon="-111.959613">
        <ele>348.000006</ele>
        <time>2024-04-28T07:10:34.000Z</time>
      </trkpt>
      <trkpt lat="33.430133" lon="-111.959443">
        <ele>348.000018</ele>
        <time>2024-04-28T07:10:36.000Z</time>
      </trkpt>
      <trkpt lat="33.430644" lon="-111.958283">
        <ele>348.011308</ele>
        <time>2024-04-28T07:10:48.000Z</time>
      </trkpt>
      <trkpt lat="33.430773" lon="-111.957639">
        <ele>348.017861</ele>
        <time>2024-04-28T07:10:54.000Z</time>
      </trkpt>
      <trkpt lat="33.430815" lon="-111.957155">
        <ele>348.053117</ele>
        <time>2024-04-28T07:10:59.000Z</time>
      </trkpt>
      <trkpt lat="33.430773" lon="-111.956741">
        <ele>348.16057</ele>
        <time>2024-04-28T07:11:03.000Z</time>
      </trkpt>
      <trkpt lat="33.430524" lon="-111.95551">
        <ele>348.49027</ele>
        <time>2024-04-28T07:11:15.000Z</time>
      </trkpt>
      <trkpt lat="33.430466" lon="-111.954848">
        <ele>348.745543</ele>
        <time>2024-04-28T07:11:21.000Z</time>
      </trkpt>
      <trkpt lat="33.430522" lon="-111.954057">
        <ele>349.147807</ele>
        <time>2024-04-28T07:11:28.000Z</time>
      </trkpt>
      <trkpt lat="33.430718" lon="-111.953222">
        <ele>349.59458</ele>
        <time>2024-04-28T07:11:36.000Z</time>
      </trkpt>
      <trkpt lat="33.430903" lon="-111.952397">
        <ele>349.742951</ele>
        <time>2024-04-28T07:11:44.000Z</time>
      </trkpt>
      <trkpt lat="33.430921" lon="-111.952258">
        <ele>349.754547</ele>
        <time>2024-04-28T07:11:45.000Z</time>
      </trkpt>
      <trkpt lat="33.430962" lon="-111.95139">
        <ele>349.827491</ele>
        <time>2024-04-28T07:11:53.000Z</time>
      </trkpt>
      <trkpt lat="33.430824" lon="-111.950165">
        <ele>349.734023</ele>
        <time>2024-04-28T07:12:04.000Z</time>
      </trkpt>
      <trkpt lat="33.430778" lon="-111.949673">
        <ele>349.648999</ele>
        <time>2024-04-28T07:12:09.000Z</time>
      </trkpt>
      <trkpt lat="33.430721" lon="-111.948967">
        <ele>349.52766</ele>
        <time>2024-04-28T07:12:16.000Z</time>
      </trkpt>
      <trkpt lat="33.430758" lon="-111.947771">
        <ele>349.417018</ele>
        <time>2024-04-28T07:12:27.000Z</time>
      </trkpt>
      <trkpt lat="33.430798" lon="-111.947423">
        <ele>349.389995</ele>
        <time>2024-04-28T07:12:30.000Z</time>
      </trkpt>
      <trkpt lat="33.430818" lon="-111.947347">
        <ele>349.383047</ele>
        <time>2024-04-28T07:12:31.000Z</time>
      </trkpt>
      <trkpt lat="33.431331" lon="-111.945385">
        <ele>349.288226</ele>
        <time>2024-04-28T07:12:50.000Z</time>
      </trkpt>
      <trkpt lat="33.431481" lon="-111.94466">
        <ele>349.266147</ele>
        <time>2024-04-28T07:12:57.000Z</time>
      </trkpt>
      <trkpt lat="33.431546" lon="-111.943525">
        <ele>349.853381</ele>
        <time>2024-04-28T07:13:08.000Z</time>
      </trkpt>
      <trkpt lat="33.431489" lon="-111.943421">
        <ele>349.921723</ele>
        <time>2024-04-28T07:13:09.000Z</time>
      </trkpt>
      <trkpt lat="33.4313" lon="-111.943377">
        <ele>350.050557</ele>
        <time>2024-04-28T07:13:11.000Z</time>
      </trkpt>
      <trkpt lat="33.431297" lon="-111.943377">
        <ele>350.050559</ele>
        <time>2024-04-28T07:13:11.000Z</time>
      </trkpt>
      <trkpt lat="33.431232" lon="-111.943371">
        <ele>350.097233</ele>
        <time>2024-04-28T07:13:12.000Z</time>
      </trkpt>
      <trkpt lat="33.430916" lon="-111.943362">
        <ele>350.298444</ele>
        <time>2024-04-28T07:13:16.000Z</time>
      </trkpt>
      <trkpt lat="33.430728" lon="-111.943336">
        <ele>350.427972</ele>
        <time>2024-04-28T07:13:18.000Z</time>
      </trkpt>
      <trkpt lat="33.430195" lon="-111.943299">
        <ele>350.913227</ele>
        <time>2024-04-28T07:13:24.000Z</time>
      </trkpt>
      <trkpt lat="33.429787" lon="-111.943143">
        <ele>351.311324</ele>
        <time>2024-04-28T07:13:29.000Z</time>
      </trkpt>
      <trkpt lat="33.429697" lon="-111.943078">
        <ele>351.404969</ele>
        <time>2024-04-28T07:13:30.000Z</time>
      </trkpt>
      <trkpt lat="33.429642" lon="-111.943028">
        <ele>351.471139</ele>
        <time>2024-04-28T07:13:31.000Z</time>
      </trkpt>
      <trkpt lat="33.429519" lon="-111.942903">
        <ele>351.622043</ele>
        <time>2024-04-28T07:13:33.000Z</time>
      </trkpt>
      <trkpt lat="33.429379" lon="-111.942844">
        <ele>351.749093</ele>
        <time>2024-04-28T07:13:35.000Z</time>
      </trkpt>
      <trkpt lat="33.429341" lon="-111.942861">
        <ele>351.79742</ele>
        <time>2024-04-28T07:13:35.000Z</time>
      </trkpt>
      <trkpt lat="33.429245" lon="-111.942846">
        <ele>351.873432</ele>
        <time>2024-04-28T07:13:36.000Z</time>
      </trkpt>
      <trkpt lat="33.429195" lon="-111.942742">
        <ele>351.971098</ele>
        <time>2024-04-28T07:13:37.000Z</time>
      </trkpt>
      <trkpt lat="33.429229" lon="-111.942551">
        <ele>352.133852</ele>
        <time>2024-04-28T07:13:39.000Z</time>
      </trkpt>
      <trkpt lat="33.429271" lon="-111.942522">
        <ele>352.21036</ele>
        <time>2024-04-28T07:13:40.000Z</time>
      </trkpt>
      <trkpt lat="33.429311" lon="-111.942476">
        <ele>352.314471</ele>
        <time>2024-04-28T07:13:41.000Z</time>
      </trkpt>
      <trkpt lat="33.429408" lon="-111.94223">
        <ele>352.656295</ele>
        <time>2024-04-28T07:13:44.000Z</time>
      </trkpt>
      <trkpt lat="33.42945" lon="-111.941352">
        <ele>353.840363</ele>
        <time>2024-04-28T07:13:52.000Z</time>
      </trkpt>
      <trkpt lat="33.429503" lon="-111.94073">
        <ele>354.649663</ele>
        <time>2024-04-28T07:13:58.000Z</time>
      </trkpt>
      <trkpt lat="33.429511" lon="-111.940678">
        <ele>354.724701</ele>
        <time>2024-04-28T07:13:58.000Z</time>
      </trkpt>
      <trkpt lat="33.429552" lon="-111.940177">
        <ele>355.569383</ele>
        <time>2024-04-28T07:14:03.000Z</time>
      </trkpt>
      <trkpt lat="33.429566" lon="-111.940095">
        <ele>355.739537</ele>
        <time>2024-04-28T07:14:04.000Z</time>
      </trkpt>
      <trkpt lat="33.42957" lon="-111.939963">
        <ele>355.970099</ele>
        <time>2024-04-28T07:14:05.000Z</time>
      </trkpt>
      <trkpt lat="33.42959" lon="-111.939854">
        <ele>356.1787</ele>
        <time>2024-04-28T07:14:06.000Z</time>
      </trkpt>
      <trkpt lat="33.42958" lon="-111.939829">
        <ele>356.228939</ele>
        <time>2024-04-28T07:14:06.000Z</time>
      </trkpt>
      <trkpt lat="33.429632" lon="-111.939202">
        <ele>357.371194</ele>
        <time>2024-04-28T07:14:12.000Z</time>
      </trkpt>
      <trkpt lat="33.429697" lon="-111.938773">
        <ele>358.186403</ele>
        <time>2024-04-28T07:14:16.000Z</time>
      </trkpt>
      <trkpt lat="33.429833" lon="-111.938472">
        <ele>358.813924</ele>
        <time>2024-04-28T07:14:19.000Z</time>
      </trkpt>
      <trkpt lat="33.430005" lon="-111.93818">
        <ele>358.544599</ele>
        <time>2024-04-28T07:14:22.000Z</time>
      </trkpt>
      <trkpt lat="33.430366" lon="-111.937543">
        <ele>357.360976</ele>
        <time>2024-04-28T07:14:29.000Z</time>
      </trkpt>
      <trkpt lat="33.430404" lon="-111.937408">
        <ele>357.166305</ele>
        <time>2024-04-28T07:14:30.000Z</time>
      </trkpt>
      <trkpt lat="33.430544" lon="-111.936829">
        <ele>356.241505</ele>
        <time>2024-04-28T07:14:36.000Z</time>
      </trkpt>
      <trkpt lat="33.430564" lon="-111.936473">
        <ele>355.678536</ele>
        <time>2024-04-28T07:14:39.000Z</time>
      </trkpt>
      <trkpt lat="33.430525" lon="-111.936088">
        <ele>354.87043</ele>
        <time>2024-04-28T07:14:43.000Z</time>
      </trkpt>
      <trkpt lat="33.430441" lon="-111.935636">
        <ele>353.912501</ele>
        <time>2024-04-28T07:14:47.000Z</time>
      </trkpt>
      <trkpt lat="33.430063" lon="-111.934926">
        <ele>352.130929</ele>
        <time>2024-04-28T07:14:55.000Z</time>
      </trkpt>
      <trkpt lat="33.429869" lon="-111.934667">
        <ele>351.419778</ele>
        <time>2024-04-28T07:14:58.000Z</time>
      </trkpt>
      <trkpt lat="33.429805" lon="-111.934588">
        <ele>351.188636</ele>
        <time>2024-04-28T07:14:59.000Z</time>
      </trkpt>
      <trkpt lat="33.429483" lon="-111.934058">
        <ele>350.981818</ele>
        <time>2024-04-28T07:15:05.000Z</time>
      </trkpt>
      <trkpt lat="33.429354" lon="-111.933792">
        <ele>350.900999</ele>
        <time>2024-04-28T07:15:08.000Z</time>
      </trkpt>
      <trkpt lat="33.429299" lon="-111.933569">
        <ele>350.838333</ele>
        <time>2024-04-28T07:15:10.000Z</time>
      </trkpt>
      <trkpt lat="33.429234" lon="-111.932199">
        <ele>350.639374</ele>
        <time>2024-04-28T07:15:23.000Z</time>
      </trkpt>
      <trkpt lat="33.429039" lon="-111.931289">
        <ele>350.763737</ele>
        <time>2024-04-28T07:15:32.000Z</time>
      </trkpt>
      <trkpt lat="33.428837" lon="-111.930758">
        <ele>350.83993</ele>
        <time>2024-04-28T07:15:37.000Z</time>
      </trkpt>
      <trkpt lat="33.428704" lon="-111.930123">
        <ele>350.920036</ele>
        <time>2024-04-28T07:15:43.000Z</time>
      </trkpt>
      <trkpt lat="33.428704" lon="-111.930098">
        <ele>350.923913</ele>
        <time>2024-04-28T07:15:43.000Z</time>
      </trkpt>
      <trkpt lat="33.42867" lon="-111.929466">
        <ele>350.995244</ele>
        <time>2024-04-28T07:15:49.000Z</time>
      </trkpt>
      <trkpt lat="33.428671" lon="-111.929302">
        <ele>351.013582</ele>
        <time>2024-04-28T07:15:51.000Z</time>
      </trkpt>
      <trkpt lat="33.428674" lon="-111.929123">
        <ele>351.033409</ele>
        <time>2024-04-28T07:15:53.000Z</time>
      </trkpt>
      <trkpt lat="33.428757" lon="-111.928362">
        <ele>351.120614</ele>
        <time>2024-04-28T07:16:00.000Z</time>
      </trkpt>
      <trkpt lat="33.428827" lon="-111.927968">
        <ele>351.155162</ele>
        <time>2024-04-28T07:16:04.000Z</time>
      </trkpt>
      <trkpt lat="33.428827" lon="-111.927221">
        <ele>351.218399</ele>
        <time>2024-04-28T07:16:11.000Z</time>
      </trkpt>
      <trkpt lat="33.428793" lon="-111.92649">
        <ele>351.279474</ele>
        <time>2024-04-28T07:16:18.000Z</time>
      </trkpt>
      <trkpt lat="33.428784" lon="-111.926288">
        <ele>351.297225</ele>
        <time>2024-04-28T07:16:20.000Z</time>
      </trkpt>
      <trkpt lat="33.428905" lon="-111.92629">
        <ele>351.292695</ele>
        <time>2024-04-28T07:16:21.000Z</time>
      </trkpt>
      <trkpt lat="33.428905" lon="-111.926517">
        <ele>351.277072</ele>
        <time>2024-04-28T07:16:23.000Z</time>
      </trkpt>
      <trkpt lat="33.428903" lon="-111.92653">
        <ele>351.277023</ele>
        <time>2024-04-28T07:16:23.000Z</time>
      </trkpt>
      <trkpt lat="33.428962" lon="-111.927568">
        <ele>351.208442</ele>
        <time>2024-04-28T07:16:33.000Z</time>
      </trkpt>
      <trkpt lat="33.428955" lon="-111.927928">
        <ele>351.185722</ele>
        <time>2024-04-28T07:16:36.000Z</time>
      </trkpt>
      <trkpt lat="33.428863" lon="-111.928455">
        <ele>351.141448</ele>
        <time>2024-04-28T07:16:41.000Z</time>
      </trkpt>
      <trkpt lat="33.42879" lon="-111.929121">
        <ele>351.051838</ele>
        <time>2024-04-28T07:16:47.000Z</time>
      </trkpt>
      <trkpt lat="33.428788" lon="-111.92931">
        <ele>351.027569</ele>
        <time>2024-04-28T07:16:49.000Z</time>
      </trkpt>
      <trkpt lat="33.428776" lon="-111.929486">
        <ele>351.00412</ele>
        <time>2024-04-28T07:16:51.000Z</time>
      </trkpt>
      <trkpt lat="33.428801" lon="-111.929798">
        <ele>350.963033</ele>
        <time>2024-04-28T07:16:54.000Z</time>
      </trkpt>
      <trkpt lat="33.428828" lon="-111.93004">
        <ele>350.928974</ele>
        <time>2024-04-28T07:16:56.000Z</time>
      </trkpt>
      <trkpt lat="33.428917" lon="-111.930531">
        <ele>350.853504</ele>
        <time>2024-04-28T07:17:01.000Z</time>
      </trkpt>
      <trkpt lat="33.42897" lon="-111.930722">
        <ele>350.806982</ele>
        <time>2024-04-28T07:17:03.000Z</time>
      </trkpt>
      <trkpt lat="33.429143" lon="-111.931238">
        <ele>350.670984</ele>
        <time>2024-04-28T07:17:08.000Z</time>
      </trkpt>
      <trkpt lat="33.429375" lon="-111.931945">
        <ele>350.488971</ele>
        <time>2024-04-28T07:17:15.000Z</time>
      </trkpt>
      <trkpt lat="33.429422" lon="-111.932224">
        <ele>350.418986</ele>
        <time>2024-04-28T07:17:18.000Z</time>
      </trkpt>
      <trkpt lat="33.429456" lon="-111.932682">
        <ele>350.355168</ele>
        <time>2024-04-28T07:17:22.000Z</time>
      </trkpt>
      <trkpt lat="33.429464" lon="-111.933268">
        <ele>350.355439</ele>
        <time>2024-04-28T07:17:27.000Z</time>
      </trkpt>
      <trkpt lat="33.429483" lon="-111.933354">
        <ele>350.355484</ele>
        <time>2024-04-28T07:17:28.000Z</time>
      </trkpt>
      <trkpt lat="33.42956" lon="-111.933812">
        <ele>350.355709</ele>
        <time>2024-04-28T07:17:32.000Z</time>
      </trkpt>
      <trkpt lat="33.429642" lon="-111.933979">
        <ele>350.355808</ele>
        <time>2024-04-28T07:17:34.000Z</time>
      </trkpt>
      <trkpt lat="33.429852" lon="-111.93432">
        <ele>350.356012</ele>
        <time>2024-04-28T07:17:38.000Z</time>
      </trkpt>
      <trkpt lat="33.430337" lon="-111.935057">
        <ele>351.50585</ele>
        <time>2024-04-28T07:17:47.000Z</time>
      </trkpt>
      <trkpt lat="33.430614" lon="-111.935759">
        <ele>352.728341</ele>
        <time>2024-04-28T07:17:54.000Z</time>
      </trkpt>
      <trkpt lat="33.430688" lon="-111.936271">
        <ele>353.548159</ele>
        <time>2024-04-28T07:17:59.000Z</time>
      </trkpt>
      <trkpt lat="33.430683" lon="-111.936741">
        <ele>354.269576</ele>
        <time>2024-04-28T07:18:03.000Z</time>
      </trkpt>
      <trkpt lat="33.430546" lon="-111.937491">
        <ele>355.397817</ele>
        <time>2024-04-28T07:18:10.000Z</time>
      </trkpt>
      <trkpt lat="33.430496" lon="-111.93763">
        <ele>355.623536</ele>
        <time>2024-04-28T07:18:11.000Z</time>
      </trkpt>
      <trkpt lat="33.430073" lon="-111.938422">
        <ele>356.857067</ele>
        <time>2024-04-28T07:18:20.000Z</time>
      </trkpt>
      <trkpt lat="33.429968" lon="-111.93859">
        <ele>356.542278</ele>
        <time>2024-04-28T07:18:22.000Z</time>
      </trkpt>
      <trkpt lat="33.429817" lon="-111.938916">
        <ele>355.961853</ele>
        <time>2024-04-28T07:18:25.000Z</time>
      </trkpt>
      <trkpt lat="33.429769" lon="-111.939131">
        <ele>355.593297</ele>
        <time>2024-04-28T07:18:27.000Z</time>
      </trkpt>
      <trkpt lat="33.429704" lon="-111.939832">
        <ele>354.481792</ele>
        <time>2024-04-28T07:18:34.000Z</time>
      </trkpt>
      <trkpt lat="33.42968" lon="-111.939971">
        <ele>354.277598</ele>
        <time>2024-04-28T07:18:35.000Z</time>
      </trkpt>
      <trkpt lat="33.429743" lon="-111.939972">
        <ele>354.155245</ele>
        <time>2024-04-28T07:18:36.000Z</time>
      </trkpt>
      <trkpt lat="33.430206" lon="-111.939989">
        <ele>353.303064</ele>
        <time>2024-04-28T07:18:41.000Z</time>
      </trkpt>
      <trkpt lat="33.431252" lon="-111.940061">
        <ele>351.313394</ele>
        <time>2024-04-28T07:18:53.000Z</time>
      </trkpt>
      <trkpt lat="33.431681" lon="-111.940121">
        <ele>350.498185</ele>
        <time>2024-04-28T07:18:58.000Z</time>
      </trkpt>
      <trkpt lat="33.43249" lon="-111.940307">
        <ele>350.082592</ele>
        <time>2024-04-28T07:19:07.000Z</time>
      </trkpt>
      <trkpt lat="33.433382" lon="-111.940631">
        <ele>349.975246</ele>
        <time>2024-04-28T07:19:17.000Z</time>
      </trkpt>
      <trkpt lat="33.434421" lon="-111.94113">
        <ele>350.625008</ele>
        <time>2024-04-28T07:19:29.000Z</time>
      </trkpt>
      <trkpt lat="33.435288" lon="-111.941665">
        <ele>351.535785</ele>
        <time>2024-04-28T07:19:40.000Z</time>
      </trkpt>
      <trkpt lat="33.435709" lon="-111.941979">
        <ele>352.945048</ele>
        <time>2024-04-28T07:19:46.000Z</time>
      </trkpt>
      <trkpt lat="33.436531" lon="-111.94269">
        <ele>355.906167</ele>
        <time>2024-04-28T07:19:57.000Z</time>
      </trkpt>
      <trkpt lat="33.436751" lon="-111.942856">
        <ele>356.663152</ele>
        <time>2024-04-28T07:20:00.000Z</time>
      </trkpt>
      <trkpt lat="33.43698" lon="-111.943015">
        <ele>357.452953</ele>
        <time>2024-04-28T07:20:03.000Z</time>
      </trkpt>
      <trkpt lat="33.43747" lon="-111.943237">
        <ele>358.985356</ele>
        <time>2024-04-28T07:20:09.000Z</time>
      </trkpt>
      <trkpt lat="33.437563" lon="-111.943266">
        <ele>359.286873</ele>
        <time>2024-04-28T07:20:10.000Z</time>
      </trkpt>
      <trkpt lat="33.437613" lon="-111.943126">
        <ele>359.654675</ele>
        <time>2024-04-28T07:20:11.000Z</time>
      </trkpt>
      <trkpt lat="33.438012" lon="-111.942099">
        <ele>362.332449</ele>
        <time>2024-04-28T07:20:22.000Z</time>
      </trkpt>
      <trkpt lat="33.438225" lon="-111.941557">
        <ele>363.345689</ele>
        <time>2024-04-28T07:20:28.000Z</time>
      </trkpt>
      <trkpt lat="33.438691" lon="-111.940317">
        <ele>365.615852</ele>
        <time>2024-04-28T07:20:41.000Z</time>
      </trkpt>
      <trkpt lat="33.438853" lon="-111.939731">
        <ele>366.190389</ele>
        <time>2024-04-28T07:20:47.000Z</time>
      </trkpt>
      <trkpt lat="33.438963" lon="-111.939013">
        <ele>366.862402</ele>
        <time>2024-04-28T07:20:54.000Z</time>
      </trkpt>
      <trkpt lat="33.439165" lon="-111.937279">
        <ele>367.358954</ele>
        <time>2024-04-28T07:21:10.000Z</time>
      </trkpt>
      <trkpt lat="33.439436" lon="-111.93661">
        <ele>367.207475</ele>
        <time>2024-04-28T07:21:17.000Z</time>
      </trkpt>
      <trkpt lat="33.439902" lon="-111.935724">
        <ele>366.352024</ele>
        <time>2024-04-28T07:21:27.000Z</time>
      </trkpt>
      <trkpt lat="33.440028" lon="-111.935246">
        <ele>365.732764</ele>
        <time>2024-04-28T07:21:32.000Z</time>
      </trkpt>
      <trkpt lat="33.440104" lon="-111.934495">
        <ele>364.815703</ele>
        <time>2024-04-28T07:21:39.000Z</time>
      </trkpt>
      <trkpt lat="33.440139" lon="-111.932533">
        <ele>360.423808</ele>
        <time>2024-04-28T07:21:57.000Z</time>
      </trkpt>
      <trkpt lat="33.440166" lon="-111.931587">
        <ele>358.800667</ele>
        <time>2024-04-28T07:22:06.000Z</time>
      </trkpt>
      <trkpt lat="33.44017" lon="-111.930985">
        <ele>358.158405</ele>
        <time>2024-04-28T07:22:12.000Z</time>
      </trkpt>
      <trkpt lat="33.440191" lon="-111.930874">
        <ele>358.049784</ele>
        <time>2024-04-28T07:22:13.000Z</time>
      </trkpt>
      <trkpt lat="33.440212" lon="-111.930787">
        <ele>357.939694</ele>
        <time>2024-04-28T07:22:14.000Z</time>
      </trkpt>
      <trkpt lat="33.440365" lon="-111.930794">
        <ele>357.751175</ele>
        <time>2024-04-28T07:22:16.000Z</time>
      </trkpt>
      <trkpt lat="33.440761" lon="-111.930796">
        <ele>357.260709</ele>
        <time>2024-04-28T07:22:20.000Z</time>
      </trkpt>
      <trkpt lat="33.44129" lon="-111.930807">
        <ele>357.64145</ele>
        <time>2024-04-28T07:22:26.000Z</time>
      </trkpt>
      <trkpt lat="33.441767" lon="-111.930922">
        <ele>358.517094</ele>
        <time>2024-04-28T07:22:31.000Z</time>
      </trkpt>
      <trkpt lat="33.442032" lon="-111.931079">
        <ele>359.046756</ele>
        <time>2024-04-28T07:22:34.000Z</time>
      </trkpt>
      <trkpt lat="33.44244" lon="-111.931419">
        <ele>359.955173</ele>
        <time>2024-04-28T07:22:40.000Z</time>
      </trkpt>
      <trkpt lat="33.443068" lon="-111.932124">
        <ele>362.033283</ele>
        <time>2024-04-28T07:22:50.000Z</time>
      </trkpt>
      <trkpt lat="33.443388" lon="-111.932408">
        <ele>362.993852</ele>
        <time>2024-04-28T07:22:54.000Z</time>
      </trkpt>
      <trkpt lat="33.44372" lon="-111.932564">
        <ele>363.952232</ele>
        <time>2024-04-28T07:22:58.000Z</time>
      </trkpt>
      <trkpt lat="33.444752" lon="-111.932915">
        <ele>366.592152</ele>
        <time>2024-04-28T07:23:10.000Z</time>
      </trkpt>
      <trkpt lat="33.44521" lon="-111.933243">
        <ele>367.879633</ele>
        <time>2024-04-28T07:23:16.000Z</time>
      </trkpt>
      <trkpt lat="33.446102" lon="-111.934534">
        <ele>370.788838</ele>
        <time>2024-04-28T07:23:32.000Z</time>
      </trkpt>
      <trkpt lat="33.446371" lon="-111.93484">
        <ele>371.490261</ele>
        <time>2024-04-28T07:23:36.000Z</time>
      </trkpt>
      <trkpt lat="33.446738" lon="-111.935021">
        <ele>372.184417</ele>
        <time>2024-04-28T07:23:40.000Z</time>
      </trkpt>
      <trkpt lat="33.447371" lon="-111.935099">
        <ele>372.600714</ele>
        <time>2024-04-28T07:23:47.000Z</time>
      </trkpt>
      <trkpt lat="33.447845" lon="-111.935117">
        <ele>372.681952</ele>
        <time>2024-04-28T07:23:52.000Z</time>
      </trkpt>
      <trkpt lat="33.449437" lon="-111.935134">
        <ele>372.723735</ele>
        <time>2024-04-28T07:24:10.000Z</time>
      </trkpt>
      <trkpt lat="33.449831" lon="-111.935141">
        <ele>372.668512</ele>
        <time>2024-04-28T07:24:14.000Z</time>
      </trkpt>
      <trkpt lat="33.450256" lon="-111.935156">
        <ele>372.607109</ele>
        <time>2024-04-28T07:24:19.000Z</time>
      </trkpt>
      <trkpt lat="33.450426" lon="-111.935159">
        <ele>372.583453</ele>
        <time>2024-04-28T07:24:21.000Z</time>
      </trkpt>
      <trkpt lat="33.450456" lon="-111.935178">
        <ele>372.578508</ele>
        <time>2024-04-28T07:24:21.000Z</time>
      </trkpt>
      <trkpt lat="33.450504" lon="-111.935216">
        <ele>372.57339</ele>
        <time>2024-04-28T07:24:22.000Z</time>
      </trkpt>
      <trkpt lat="33.450411" lon="-111.935258">
        <ele>372.607333</ele>
        <time>2024-04-28T07:24:23.000Z</time>
      </trkpt>
      <trkpt lat="33.448634" lon="-111.935215">
        <ele>373.087943</ele>
        <time>2024-04-28T07:24:43.000Z</time>
      </trkpt>
      <trkpt lat="33.44784" lon="-111.935203">
        <ele>372.810556</ele>
        <time>2024-04-28T07:24:52.000Z</time>
      </trkpt>
      <trkpt lat="33.447382" lon="-111.935194">
        <ele>372.649714</ele>
        <time>2024-04-28T07:24:57.000Z</time>
      </trkpt>
      <trkpt lat="33.446885" lon="-111.935173">
        <ele>372.419395</ele>
        <time>2024-04-28T07:25:03.000Z</time>
      </trkpt>
      <trkpt lat="33.446342" lon="-111.934938">
        <ele>371.331872</ele>
        <time>2024-04-28T07:25:09.000Z</time>
      </trkpt>
      <trkpt lat="33.446158" lon="-111.934794">
        <ele>370.931972</ele>
        <time>2024-04-28T07:25:11.000Z</time>
      </trkpt>
      <trkpt lat="33.445677" lon="-111.934077">
        <ele>369.504628</ele>
        <time>2024-04-28T07:25:20.000Z</time>
      </trkpt>
      <trkpt lat="33.44538" lon="-111.933617">
        <ele>368.430368</ele>
        <time>2024-04-28T07:25:25.000Z</time>
      </trkpt>
      <trkpt lat="33.445152" lon="-111.933318">
        <ele>367.585903</ele>
        <time>2024-04-28T07:25:29.000Z</time>
      </trkpt>
      <trkpt lat="33.444726" lon="-111.933007">
        <ele>366.365668</ele>
        <time>2024-04-28T07:25:35.000Z</time>
      </trkpt>
      <trkpt lat="33.443852" lon="-111.93272">
        <ele>364.11499</ele>
        <time>2024-04-28T07:25:45.000Z</time>
      </trkpt>
      <trkpt lat="33.443338" lon="-111.932481">
        <ele>362.681929</ele>
        <time>2024-04-28T07:25:51.000Z</time>
      </trkpt>
      <trkpt lat="33.442773" lon="-111.931949">
        <ele>360.771117</ele>
        <time>2024-04-28T07:25:59.000Z</time>
      </trkpt>
      <trkpt lat="33.442378" lon="-111.931504">
        <ele>359.617934</ele>
        <time>2024-04-28T07:26:05.000Z</time>
      </trkpt>
      <trkpt lat="33.442169" lon="-111.931293">
        <ele>359.189141</ele>
        <time>2024-04-28T07:26:08.000Z</time>
      </trkpt>
      <trkpt lat="33.441743" lon="-111.931021">
        <ele>358.461892</ele>
        <time>2024-04-28T07:26:13.000Z</time>
      </trkpt>
      <trkpt lat="33.441302" lon="-111.930917">
        <ele>357.80371</ele>
        <time>2024-04-28T07:26:18.000Z</time>
      </trkpt>
      <trkpt lat="33.440831" lon="-111.930898">
        <ele>357.462015</ele>
        <time>2024-04-28T07:26:23.000Z</time>
      </trkpt>
      <trkpt lat="33.440373" lon="-111.930892">
        <ele>358.233958</ele>
        <time>2024-04-28T07:26:28.000Z</time>
      </trkpt>
      <trkpt lat="33.440277" lon="-111.930888">
        <ele>358.370887</ele>
        <time>2024-04-28T07:26:29.000Z</time>
      </trkpt>
      <trkpt lat="33.440293" lon="-111.930977">
        <ele>358.512652</ele>
        <time>2024-04-28T07:26:30.000Z</time>
      </trkpt>
      <trkpt lat="33.440183" lon="-111.9351">
        <ele>365.909148</ele>
        <time>2024-04-28T07:27:08.000Z</time>
      </trkpt>
      <trkpt lat="33.440004" lon="-111.935779">
        <ele>366.898623</ele>
        <time>2024-04-28T07:27:15.000Z</time>
      </trkpt>
      <trkpt lat="33.439432" lon="-111.936909">
        <ele>367.682105</ele>
        <time>2024-04-28T07:27:27.000Z</time>
      </trkpt>
      <trkpt lat="33.439277" lon="-111.937321">
        <ele>367.494441</ele>
        <time>2024-04-28T07:27:31.000Z</time>
      </trkpt>
      <trkpt lat="33.439186" lon="-111.937801">
        <ele>367.296334</ele>
        <time>2024-04-28T07:27:36.000Z</time>
      </trkpt>
      <trkpt lat="33.439012" lon="-111.939537">
        <ele>365.534983</ele>
        <time>2024-04-28T07:27:52.000Z</time>
      </trkpt>
      <trkpt lat="33.438804" lon="-111.94036">
        <ele>364.367707</ele>
        <time>2024-04-28T07:28:00.000Z</time>
      </trkpt>
      <trkpt lat="33.43858" lon="-111.940978">
        <ele>363.665821</ele>
        <time>2024-04-28T07:28:06.000Z</time>
      </trkpt>
      <trkpt lat="33.438345" lon="-111.941613">
        <ele>363.019332</ele>
        <time>2024-04-28T07:28:12.000Z</time>
      </trkpt>
      <trkpt lat="33.438222" lon="-111.941958">
        <ele>362.664717</ele>
        <time>2024-04-28T07:28:15.000Z</time>
      </trkpt>
      <trkpt lat="33.438021" lon="-111.94249">
        <ele>362.132448</ele>
        <time>2024-04-28T07:28:20.000Z</time>
      </trkpt>
      <trkpt lat="33.43784" lon="-111.942958">
        <ele>361.953468</ele>
        <time>2024-04-28T07:28:25.000Z</time>
      </trkpt>
      <trkpt lat="33.437764" lon="-111.943185">
        <ele>361.871359</ele>
        <time>2024-04-28T07:28:27.000Z</time>
      </trkpt>
      <trkpt lat="33.4377" lon="-111.94331">
        <ele>361.820699</ele>
        <time>2024-04-28T07:28:28.000Z</time>
      </trkpt>
      <trkpt lat="33.438132" lon="-111.943457">
        <ele>361.634822</ele>
        <time>2024-04-28T07:28:33.000Z</time>
      </trkpt>
      <trkpt lat="33.438303" lon="-111.943517">
        <ele>361.562891</ele>
        <time>2024-04-28T07:28:35.000Z</time>
      </trkpt>
      <trkpt lat="33.438683" lon="-111.94369">
        <ele>361.394096</ele>
        <time>2024-04-28T07:28:40.000Z</time>
      </trkpt>
      <trkpt lat="33.438988" lon="-111.943864">
        <ele>361.401355</ele>
        <time>2024-04-28T07:28:44.000Z</time>
      </trkpt>
      <trkpt lat="33.439226" lon="-111.944016">
        <ele>361.41122</ele>
        <time>2024-04-28T07:28:47.000Z</time>
      </trkpt>
      <trkpt lat="33.440458" lon="-111.945006">
        <ele>361.593135</ele>
        <time>2024-04-28T07:29:03.000Z</time>
      </trkpt>
      <trkpt lat="33.441014" lon="-111.945474">
        <ele>361.939882</ele>
        <time>2024-04-28T07:29:11.000Z</time>
      </trkpt>
      <trkpt lat="33.442113" lon="-111.946419">
        <ele>362.729181</ele>
        <time>2024-04-28T07:29:26.000Z</time>
      </trkpt>
      <trkpt lat="33.444588" lon="-111.948586">
        <ele>364.279544</ele>
        <time>2024-04-28T07:30:00.000Z</time>
      </trkpt>
      <trkpt lat="33.444397" lon="-111.948877">
        <ele>363.932953</ele>
        <time>2024-04-28T07:30:03.000Z</time>
      </trkpt>
      <trkpt lat="33.444218" lon="-111.948977">
        <ele>363.701706</ele>
        <time>2024-04-28T07:30:05.000Z</time>
      </trkpt>
      <trkpt lat="33.443032" lon="-111.948315">
        <ele>362.038417</ele>
        <time>2024-04-28T07:30:20.000Z</time>
      </trkpt>
      <trkpt lat="33.442274" lon="-111.947745">
        <ele>361.292208</ele>
        <time>2024-04-28T07:30:30.000Z</time>
      </trkpt>
      <trkpt lat="33.442016" lon="-111.947413">
        <ele>360.984499</ele>
        <time>2024-04-28T07:30:34.000Z</time>
      </trkpt>
      <trkpt lat="33.44183" lon="-111.947093">
        <ele>360.71518</ele>
        <time>2024-04-28T07:30:38.000Z</time>
      </trkpt>
      <trkpt lat="33.441703" lon="-111.946878">
        <ele>360.53081</ele>
        <time>2024-04-28T07:30:40.000Z</time>
      </trkpt>
      <trkpt lat="33.441243" lon="-111.946137">
        <ele>360.641999</ele>
        <time>2024-04-28T07:30:49.000Z</time>
      </trkpt>
      <trkpt lat="33.440849" lon="-111.945624">
        <ele>360.727299</ele>
        <time>2024-04-28T07:30:55.000Z</time>
      </trkpt>
      <trkpt lat="33.440358" lon="-111.945044">
        <ele>360.754833</ele>
        <time>2024-04-28T07:31:03.000Z</time>
      </trkpt>
      <trkpt lat="33.439628" lon="-111.944425">
        <ele>360.619238</ele>
        <time>2024-04-28T07:31:13.000Z</time>
      </trkpt>
      <trkpt lat="33.439176" lon="-111.944117">
        <ele>360.539709</ele>
        <time>2024-04-28T07:31:19.000Z</time>
      </trkpt>
      <trkpt lat="33.438647" lon="-111.943823">
        <ele>359.753463</ele>
        <time>2024-04-28T07:31:25.000Z</time>
      </trkpt>
      <trkpt lat="33.438266" lon="-111.943668">
        <ele>359.072302</ele>
        <time>2024-04-28T07:31:29.000Z</time>
      </trkpt>
      <trkpt lat="33.438204" lon="-111.94365">
        <ele>358.986032</ele>
        <time>2024-04-28T07:31:30.000Z</time>
      </trkpt>
      <trkpt lat="33.438123" lon="-111.943621">
        <ele>358.823742</ele>
        <time>2024-04-28T07:31:31.000Z</time>
      </trkpt>
      <trkpt lat="33.437649" lon="-111.943462">
        <ele>357.987841</ele>
        <time>2024-04-28T07:31:36.000Z</time>
      </trkpt>
      <trkpt lat="33.4375" lon="-111.943435">
        <ele>357.736907</ele>
        <time>2024-04-28T07:31:38.000Z</time>
      </trkpt>
      <trkpt lat="33.437399" lon="-111.9434">
        <ele>357.536512</ele>
        <time>2024-04-28T07:31:39.000Z</time>
      </trkpt>
      <trkpt lat="33.436165" lon="-111.942974">
        <ele>353.824929</ele>
        <time>2024-04-28T07:31:53.000Z</time>
      </trkpt>
      <trkpt lat="33.435589" lon="-111.942727">
        <ele>352.083818</ele>
        <time>2024-04-28T07:32:00.000Z</time>
      </trkpt>
      <trkpt lat="33.435465" lon="-111.94266">
        <ele>351.887763</ele>
        <time>2024-04-28T07:32:02.000Z</time>
      </trkpt>
      <trkpt lat="33.435115" lon="-111.942509">
        <ele>351.33113</ele>
        <time>2024-04-28T07:32:06.000Z</time>
      </trkpt>
      <trkpt lat="33.434233" lon="-111.942103">
        <ele>349.939445</ele>
        <time>2024-04-28T07:32:17.000Z</time>
      </trkpt>
      <trkpt lat="33.433364" lon="-111.941589">
        <ele>349.553366</ele>
        <time>2024-04-28T07:32:28.000Z</time>
      </trkpt>
      <trkpt lat="33.432316" lon="-111.940971">
        <ele>349.682579</ele>
        <time>2024-04-28T07:32:41.000Z</time>
      </trkpt>
      <trkpt lat="33.431545" lon="-111.940568">
        <ele>350.30143</ele>
        <time>2024-04-28T07:32:50.000Z</time>
      </trkpt>
      <trkpt lat="33.431308" lon="-111.940476">
        <ele>350.490138</ele>
        <time>2024-04-28T07:32:53.000Z</time>
      </trkpt>
      <trkpt lat="33.430317" lon="-111.940137">
        <ele>351.209362</ele>
        <time>2024-04-28T07:33:04.000Z</time>
      </trkpt>
      <trkpt lat="33.430203" lon="-111.940138">
        <ele>351.282299</ele>
        <time>2024-04-28T07:33:05.000Z</time>
      </trkpt>
      <trkpt lat="33.429733" lon="-111.940101">
        <ele>351.581881</ele>
        <time>2024-04-28T07:33:10.000Z</time>
      </trkpt>
      <trkpt lat="33.429677" lon="-111.940098">
        <ele>351.623029</ele>
        <time>2024-04-28T07:33:11.000Z</time>
      </trkpt>
      <trkpt lat="33.429659" lon="-111.940189">
        <ele>351.674146</ele>
        <time>2024-04-28T07:33:12.000Z</time>
      </trkpt>
      <trkpt lat="33.429604" lon="-111.940911">
        <ele>352.060014</ele>
        <time>2024-04-28T07:33:19.000Z</time>
      </trkpt>
      <trkpt lat="33.429533" lon="-111.94156">
        <ele>351.937512</ele>
        <time>2024-04-28T07:33:25.000Z</time>
      </trkpt>
      <trkpt lat="33.429529" lon="-111.942078">
        <ele>351.748715</ele>
        <time>2024-04-28T07:33:30.000Z</time>
      </trkpt>
      <trkpt lat="33.429519" lon="-111.942713">
        <ele>351.517129</ele>
        <time>2024-04-28T07:33:36.000Z</time>
      </trkpt>
      <trkpt lat="33.429571" lon="-111.942804">
        <ele>351.479212</ele>
        <time>2024-04-28T07:33:37.000Z</time>
      </trkpt>
      <trkpt lat="33.429619" lon="-111.942845">
        <ele>351.453967</ele>
        <time>2024-04-28T07:33:38.000Z</time>
      </trkpt>
      <trkpt lat="33.429832" lon="-111.943048">
        <ele>351.329429</ele>
        <time>2024-04-28T07:33:41.000Z</time>
      </trkpt>
      <trkpt lat="33.430215" lon="-111.943183">
        <ele>350.97335</ele>
        <time>2024-04-28T07:33:45.000Z</time>
      </trkpt>
      <trkpt lat="33.430323" lon="-111.943214">
        <ele>350.878371</ele>
        <time>2024-04-28T07:33:46.000Z</time>
      </trkpt>
      <trkpt lat="33.430931" lon="-111.943239">
        <ele>350.336468</ele>
        <time>2024-04-28T07:33:53.000Z</time>
      </trkpt>
      <trkpt lat="33.431516" lon="-111.943287">
        <ele>349.80935</ele>
        <time>2024-04-28T07:34:00.000Z</time>
      </trkpt>
      <trkpt lat="33.431637" lon="-111.943406">
        <ele>349.707793</ele>
        <time>2024-04-28T07:34:02.000Z</time>
      </trkpt>
      <trkpt lat="33.431591" lon="-111.944525">
        <ele>349.391432</ele>
        <time>2024-04-28T07:34:12.000Z</time>
      </trkpt>
      <trkpt lat="33.4315" lon="-111.94508">
        <ele>349.231532</ele>
        <time>2024-04-28T07:34:17.000Z</time>
      </trkpt>
      <trkpt lat="33.431443" lon="-111.945371">
        <ele>349.14763</ele>
        <time>2024-04-28T07:34:20.000Z</time>
      </trkpt>
      <trkpt lat="33.431061" lon="-111.946749">
        <ele>349.171443</ele>
        <time>2024-04-28T07:34:33.000Z</time>
      </trkpt>
      <trkpt lat="33.430929" lon="-111.947377">
        <ele>349.193639</ele>
        <time>2024-04-28T07:34:39.000Z</time>
      </trkpt>
      <trkpt lat="33.430915" lon="-111.947455">
        <ele>349.196959</ele>
        <time>2024-04-28T07:34:40.000Z</time>
      </trkpt>
      <trkpt lat="33.43082" lon="-111.948301">
        <ele>349.251159</ele>
        <time>2024-04-28T07:34:48.000Z</time>
      </trkpt>
      <trkpt lat="33.430837" lon="-111.949274">
        <ele>349.316245</ele>
        <time>2024-04-28T07:34:57.000Z</time>
      </trkpt>
      <trkpt lat="33.430858" lon="-111.949445">
        <ele>349.328525</ele>
        <time>2024-04-28T07:34:59.000Z</time>
      </trkpt>
      <trkpt lat="33.430884" lon="-111.949631">
        <ele>349.340193</ele>
        <time>2024-04-28T07:35:01.000Z</time>
      </trkpt>
      <trkpt lat="33.430976" lon="-111.950717">
        <ele>349.476809</ele>
        <time>2024-04-28T07:35:11.000Z</time>
      </trkpt>
      <trkpt lat="33.431055" lon="-111.951578">
        <ele>349.589113</ele>
        <time>2024-04-28T07:35:19.000Z</time>
      </trkpt>
      <trkpt lat="33.431025" lon="-111.952284">
        <ele>349.457591</ele>
        <time>2024-04-28T07:35:26.000Z</time>
      </trkpt>
      <trkpt lat="33.431003" lon="-111.952422">
        <ele>349.411392</ele>
        <time>2024-04-28T07:35:27.000Z</time>
      </trkpt>
      <trkpt lat="33.430606" lon="-111.954163">
        <ele>348.811411</ele>
        <time>2024-04-28T07:35:44.000Z</time>
      </trkpt>
      <trkpt lat="33.430582" lon="-111.954741">
        <ele>348.60288</ele>
        <time>2024-04-28T07:35:49.000Z</time>
      </trkpt>
      <trkpt lat="33.430621" lon="-111.955489">
        <ele>348.330209</ele>
        <time>2024-04-28T07:35:56.000Z</time>
      </trkpt>
      <trkpt lat="33.430852" lon="-111.956635">
        <ele>348.091588</ele>
        <time>2024-04-28T07:36:07.000Z</time>
      </trkpt>
      <trkpt lat="33.430912" lon="-111.957305">
        <ele>348.051277</ele>
        <time>2024-04-28T07:36:13.000Z</time>
      </trkpt>
      <trkpt lat="33.430799" lon="-111.958086">
        <ele>348.003687</ele>
        <time>2024-04-28T07:36:20.000Z</time>
      </trkpt>
      <trkpt lat="33.430545" lon="-111.958802">
        <ele>348.000014</ele>
        <time>2024-04-28T07:36:27.000Z</time>
      </trkpt>
      <trkpt lat="33.430422" lon="-111.959079">
        <ele>348.000006</ele>
        <time>2024-04-28T07:36:30.000Z</time>
      </trkpt>
      <trkpt lat="33.430206" lon="-111.959503">
        <ele>348.00001</ele>
        <time>2024-04-28T07:36:35.000Z</time>
      </trkpt>
      <trkpt lat="33.430094" lon="-111.959787">
        <ele>348.00001</ele>
        <time>2024-04-28T07:36:38.000Z</time>
      </trkpt>
      <trkpt lat="33.429898" lon="-111.960191">
        <ele>347.994533</ele>
        <time>2024-04-28T07:36:42.000Z</time>
      </trkpt>
      <trkpt lat="33.429695" lon="-111.960746">
        <ele>347.973865</ele>
        <time>2024-04-28T07:36:48.000Z</time>
      </trkpt>
      <trkpt lat="33.429636" lon="-111.960959">
        <ele>347.965634</ele>
        <time>2024-04-28T07:36:50.000Z</time>
      </trkpt>
      <trkpt lat="33.429729" lon="-111.96097">
        <ele>347.961467</ele>
        <time>2024-04-28T07:36:51.000Z</time>
      </trkpt>
      <trkpt lat="33.430155" lon="-111.960972">
        <ele>347.94403</ele>
        <time>2024-04-28T07:36:56.000Z</time>
      </trkpt>
      <trkpt lat="33.430218" lon="-111.960975">
        <ele>347.941134</ele>
        <time>2024-04-28T07:36:57.000Z</time>
      </trkpt>
      <trkpt lat="33.430324" lon="-111.960967">
        <ele>347.937266</ele>
        <time>2024-04-28T07:36:58.000Z</time>
      </trkpt>
      <trkpt lat="33.43088" lon="-111.961042">
        <ele>347.850267</ele>
        <time>2024-04-28T07:37:04.000Z</time>
      </trkpt>
      <trkpt lat="33.431266" lon="-111.961104">
        <ele>347.742037</ele>
        <time>2024-04-28T07:37:08.000Z</time>
      </trkpt>
      <trkpt lat="33.431587" lon="-111.961163">
        <ele>347.649227</ele>
        <time>2024-04-28T07:37:12.000Z</time>
      </trkpt>
      <trkpt lat="33.431713" lon="-111.961097">
        <ele>347.614138</ele>
        <time>2024-04-28T07:37:14.000Z</time>
      </trkpt>
      <trkpt lat="33.433419" lon="-111.961099">
        <ele>347.075388</ele>
        <time>2024-04-28T07:37:33.000Z</time>
      </trkpt>
      <trkpt lat="33.433907" lon="-111.961091">
        <ele>346.911817</ele>
        <time>2024-04-28T07:37:38.000Z</time>
      </trkpt>
      <trkpt lat="33.436612" lon="-111.960828">
        <ele>346.718213</ele>
        <time>2024-04-28T07:38:08.000Z</time>
      </trkpt>
      <trkpt lat="33.436735" lon="-111.960809">
        <ele>346.733516</ele>
        <time>2024-04-28T07:38:09.000Z</time>
      </trkpt>
      <trkpt lat="33.437033" lon="-111.960792">
        <ele>346.7678</ele>
        <time>2024-04-28T07:38:12.000Z</time>
      </trkpt>
      <trkpt lat="33.437134" lon="-111.960779">
        <ele>346.777587</ele>
        <time>2024-04-28T07:38:13.000Z</time>
      </trkpt>
      <trkpt lat="33.437125" lon="-111.960793">
        <ele>346.77781</ele>
        <time>2024-04-28T07:38:13.000Z</time>
      </trkpt>
      <trkpt lat="33.437124" lon="-111.960791">
        <ele>346.778035</ele>
        <time>2024-04-28T07:38:13.000Z</time>
      </trkpt>
      <trkpt lat="33.437123" lon="-111.960784">
        <ele>346.778045</ele>
        <time>2024-04-28T07:38:13.000Z</time>
      </trkpt>
      <trkpt lat="33.436981" lon="-111.959789">
        <ele>346.906216</ele>
        <time>2024-04-28T07:38:22.000Z</time>
      </trkpt>
      <trkpt lat="33.436973" lon="-111.959784">
        <ele>346.906216</ele>
        <time>2024-04-28T07:38:22.000Z</time>
      </trkpt>
      <trkpt lat="33.436809" lon="-111.958952">
        <ele>347.103359</ele>
        <time>2024-04-28T07:38:30.000Z</time>
      </trkpt>
      <trkpt lat="33.43665" lon="-111.958109">
        <ele>347.300575</ele>
        <time>2024-04-28T07:38:38.000Z</time>
      </trkpt>
      <trkpt lat="33.436485" lon="-111.957266">
        <ele>347.470028</ele>
        <time>2024-04-28T07:38:46.000Z</time>
      </trkpt>
      <trkpt lat="33.436319" lon="-111.956433">
        <ele>347.631166</ele>
        <time>2024-04-28T07:38:54.000Z</time>
      </trkpt>
      <trkpt lat="33.436152" lon="-111.955596">
        <ele>347.756397</ele>
        <time>2024-04-28T07:39:02.000Z</time>
      </trkpt>
      <trkpt lat="33.43616" lon="-111.955587">
        <ele>347.756404</ele>
        <time>2024-04-28T07:39:02.000Z</time>
      </trkpt>
      <trkpt lat="33.435991" lon="-111.954679">
        <ele>347.789319</ele>
        <time>2024-04-28T07:39:11.000Z</time>
      </trkpt>
      <trkpt lat="33.435973" lon="-111.954691">
        <ele>347.789324</ele>
        <time>2024-04-28T07:39:11.000Z</time>
      </trkpt>
      <trkpt lat="33.435884" lon="-111.953667">
        <ele>347.829528</ele>
        <time>2024-04-28T07:39:21.000Z</time>
      </trkpt>
      <trkpt lat="33.43579" lon="-111.952652">
        <ele>347.98233</ele>
        <time>2024-04-28T07:39:30.000Z</time>
      </trkpt>
      <trkpt lat="33.435684" lon="-111.951625">
        <ele>348.13501</ele>
        <time>2024-04-28T07:39:40.000Z</time>
      </trkpt>
      <trkpt lat="33.435684" lon="-111.951628">
        <ele>348.135006</ele>
        <time>2024-04-28T07:39:40.000Z</time>
      </trkpt>
      <trkpt lat="33.435623" lon="-111.950616">
        <ele>348.526826</ele>
        <time>2024-04-28T07:39:49.000Z</time>
      </trkpt>
      <trkpt lat="33.435575" lon="-111.949615">
        <ele>348.936225</ele>
        <time>2024-04-28T07:39:58.000Z</time>
      </trkpt>
      <trkpt lat="33.435693" lon="-111.949606">
        <ele>348.995958</ele>
        <time>2024-04-28T07:39:59.000Z</time>
      </trkpt>
      <trkpt lat="33.436523" lon="-111.949525">
        <ele>349.660683</ele>
        <time>2024-04-28T07:40:08.000Z</time>
      </trkpt>
      <trkpt lat="33.436636" lon="-111.94953">
        <ele>349.743898</ele>
        <time>2024-04-28T07:40:09.000Z</time>
      </trkpt>
      <trkpt lat="33.436835" lon="-111.949504">
        <ele>349.903945</ele>
        <time>2024-04-28T07:40:11.000Z</time>
      </trkpt>
      <trkpt lat="33.437191" lon="-111.9494">
        <ele>350.21435</ele>
        <time>2024-04-28T07:40:15.000Z</time>
      </trkpt>
      <trkpt lat="33.437406" lon="-111.949381">
        <ele>350.378843</ele>
        <time>2024-04-28T07:40:17.000Z</time>
      </trkpt>
      <trkpt lat="33.437907" lon="-111.949311">
        <ele>350.832285</ele>
        <time>2024-04-28T07:40:23.000Z</time>
      </trkpt>
      <trkpt lat="33.438494" lon="-111.949144">
        <ele>351.386877</ele>
        <time>2024-04-28T07:40:30.000Z</time>
      </trkpt>
      <trkpt lat="33.439056" lon="-111.948838">
        <ele>351.953698</ele>
        <time>2024-04-28T07:40:37.000Z</time>
      </trkpt>
      <trkpt lat="33.439175" lon="-111.948775">
        <ele>352.062747</ele>
        <time>2024-04-28T07:40:38.000Z</time>
      </trkpt>
      <trkpt lat="33.439345" lon="-111.948674">
        <ele>352.158769</ele>
        <time>2024-04-28T07:40:40.000Z</time>
      </trkpt>
      <trkpt lat="33.439367" lon="-111.948661">
        <ele>352.16591</ele>
        <time>2024-04-28T07:40:40.000Z</time>
      </trkpt>
      <trkpt lat="33.439374" lon="-111.948661">
        <ele>352.167113</ele>
        <time>2024-04-28T07:40:40.000Z</time>
      </trkpt>
      <trkpt lat="33.439437" lon="-111.948831">
        <ele>352.206766</ele>
        <time>2024-04-28T07:40:42.000Z</time>
      </trkpt>
      <trkpt lat="33.439742" lon="-111.949708">
        <ele>352.409601</ele>
        <time>2024-04-28T07:40:51.000Z</time>
      </trkpt>
      <trkpt lat="33.439809" lon="-111.950047">
        <ele>352.48742</ele>
        <time>2024-04-28T07:40:54.000Z</time>
      </trkpt>
      <trkpt lat="33.439866" lon="-111.950277">
        <ele>352.535841</ele>
        <time>2024-04-28T07:40:56.000Z</time>
      </trkpt>
      <trkpt lat="33.439969" lon="-111.950835">
        <ele>352.453672</ele>
        <time>2024-04-28T07:41:01.000Z</time>
      </trkpt>
      <trkpt lat="33.440367" lon="-111.953026">
        <ele>351.609122</ele>
        <time>2024-04-28T07:41:22.000Z</time>
      </trkpt>
      <trkpt lat="33.440472" lon="-111.95348">
        <ele>351.515617</ele>
        <time>2024-04-28T07:41:26.000Z</time>
      </trkpt>
      <trkpt lat="33.440581" lon="-111.954002">
        <ele>351.40955</ele>
        <time>2024-04-28T07:41:31.000Z</time>
      </trkpt>
      <trkpt lat="33.440737" lon="-111.954444">
        <ele>351.317126</ele>
        <time>2024-04-28T07:41:35.000Z</time>
      </trkpt>
      <trkpt lat="33.440774" lon="-111.954531">
        <ele>351.297201</ele>
        <time>2024-04-28T07:41:36.000Z</time>
      </trkpt>
      <trkpt lat="33.44084" lon="-111.954645">
        <ele>351.270976</ele>
        <time>2024-04-28T07:41:37.000Z</time>
      </trkpt>
      <trkpt lat="33.441166" lon="-111.955163">
        <ele>351.333396</ele>
        <time>2024-04-28T07:41:43.000Z</time>
      </trkpt>
      <trkpt lat="33.441532" lon="-111.955562">
        <ele>351.396345</ele>
        <time>2024-04-28T07:41:49.000Z</time>
      </trkpt>
      <trkpt lat="33.441712" lon="-111.955709">
        <ele>351.423038</ele>
        <time>2024-04-28T07:41:51.000Z</time>
      </trkpt>
      <trkpt lat="33.442055" lon="-111.955968">
        <ele>351.475341</ele>
        <time>2024-04-28T07:41:56.000Z</time>
      </trkpt>
      <trkpt lat="33.442147" lon="-111.956056">
        <ele>351.491003</ele>
        <time>2024-04-28T07:41:57.000Z</time>
      </trkpt>
      <trkpt lat="33.44251" lon="-111.956356">
        <ele>351.62622</ele>
        <time>2024-04-28T07:42:02.000Z</time>
      </trkpt>
      <trkpt lat="33.442621" lon="-111.956458">
        <ele>351.669877</ele>
        <time>2024-04-28T07:42:04.000Z</time>
      </trkpt>
      <trkpt lat="33.442728" lon="-111.956546">
        <ele>351.714511</ele>
        <time>2024-04-28T07:42:05.000Z</time>
      </trkpt>
      <trkpt lat="33.442616" lon="-111.956769">
        <ele>351.782474</ele>
        <time>2024-04-28T07:42:07.000Z</time>
      </trkpt>
      <trkpt lat="33.442552" lon="-111.956897">
        <ele>351.824453</ele>
        <time>2024-04-28T07:42:08.000Z</time>
      </trkpt>
      <trkpt lat="33.442039" lon="-111.95778">
        <ele>352.007448</ele>
        <time>2024-04-28T07:42:18.000Z</time>
      </trkpt>
      <trkpt lat="33.441645" lon="-111.95841">
        <ele>351.623275</ele>
        <time>2024-04-28T07:42:25.000Z</time>
      </trkpt>
      <trkpt lat="33.440786" lon="-111.959868">
        <ele>350.50528</ele>
        <time>2024-04-28T07:42:42.000Z</time>
      </trkpt>
      <trkpt lat="33.440228" lon="-111.960439">
        <ele>349.675296</ele>
        <time>2024-04-28T07:42:50.000Z</time>
      </trkpt>
      <trkpt lat="33.439803" lon="-111.960692">
        <ele>349.144274</ele>
        <time>2024-04-28T07:42:55.000Z</time>
      </trkpt>
      <trkpt lat="33.439419" lon="-111.960836">
        <ele>348.714928</ele>
        <time>2024-04-28T07:42:59.000Z</time>
      </trkpt>
      <trkpt lat="33.439146" lon="-111.960886">
        <ele>348.417626</ele>
        <time>2024-04-28T07:43:02.000Z</time>
      </trkpt>
      <trkpt lat="33.438641" lon="-111.960923">
        <ele>347.886296</ele>
        <time>2024-04-28T07:43:08.000Z</time>
      </trkpt>
      <trkpt lat="33.438539" lon="-111.960939">
        <ele>347.765032</ele>
        <time>2024-04-28T07:43:09.000Z</time>
      </trkpt>
      <trkpt lat="33.438456" lon="-111.960948">
        <ele>347.688333</ele>
        <time>2024-04-28T07:43:10.000Z</time>
      </trkpt>
      <trkpt lat="33.437888" lon="-111.960991">
        <ele>347.081131</ele>
        <time>2024-04-28T07:43:16.000Z</time>
      </trkpt>
      <trkpt lat="33.437355" lon="-111.961033">
        <ele>346.877139</ele>
        <time>2024-04-28T07:43:22.000Z</time>
      </trkpt>
      <trkpt lat="33.437265" lon="-111.961038">
        <ele>346.835172</ele>
        <time>2024-04-28T07:43:23.000Z</time>
      </trkpt>
      <trkpt lat="33.437147" lon="-111.961041">
        <ele>346.793995</ele>
        <time>2024-04-28T07:43:24.000Z</time>
      </trkpt>
      <trkpt lat="33.437052" lon="-111.961045">
        <ele>346.753611</ele>
        <time>2024-04-28T07:43:25.000Z</time>
      </trkpt>
      <trkpt lat="33.436777" lon="-111.961068">
        <ele>346.646009</ele>
        <time>2024-04-28T07:43:28.000Z</time>
      </trkpt>
      <trkpt lat="33.433925" lon="-111.961228">
        <ele>346.75396</ele>
        <time>2024-04-28T07:44:00.000Z</time>
      </trkpt>
      <trkpt lat="33.433401" lon="-111.961254">
        <ele>346.978991</ele>
        <time>2024-04-28T07:44:06.000Z</time>
      </trkpt>
      <trkpt lat="33.432249" lon="-111.961274">
        <ele>347.43725</ele>
        <time>2024-04-28T07:44:19.000Z</time>
      </trkpt>
      <trkpt lat="33.43207" lon="-111.96128">
        <ele>347.492084</ele>
        <time>2024-04-28T07:44:21.000Z</time>
      </trkpt>
      <trkpt lat="33.431709" lon="-111.961244">
        <ele>347.607674</ele>
        <time>2024-04-28T07:44:25.000Z</time>
      </trkpt>
      <trkpt lat="33.431602" lon="-111.96115">
        <ele>347.654069</ele>
        <time>2024-04-28T07:44:26.000Z</time>
      </trkpt>
      <trkpt lat="33.431266" lon="-111.961096">
        <ele>347.760702</ele>
        <time>2024-04-28T07:44:30.000Z</time>
      </trkpt>
      <trkpt lat="33.430873" lon="-111.961037">
        <ele>347.885047</ele>
        <time>2024-04-28T07:44:34.000Z</time>
      </trkpt>
      <trkpt lat="33.430307" lon="-111.960968">
        <ele>347.946998</ele>
        <time>2024-04-28T07:44:40.000Z</time>
      </trkpt>
      <trkpt lat="33.430228" lon="-111.960978">
        <ele>347.950548</ele>
        <time>2024-04-28T07:44:41.000Z</time>
      </trkpt>
      <trkpt lat="33.430163" lon="-111.960972">
        <ele>347.953222</ele>
        <time>2024-04-28T07:44:42.000Z</time>
      </trkpt>
      <trkpt lat="33.429746" lon="-111.960965">
        <ele>347.969304</ele>
        <time>2024-04-28T07:44:47.000Z</time>
      </trkpt>
      <trkpt lat="33.429645" lon="-111.960966">
        <ele>347.973125</ele>
        <time>2024-04-28T07:44:48.000Z</time>
      </trkpt>
      <trkpt lat="33.429509" lon="-111.960965">
        <ele>347.978311</ele>
        <time>2024-04-28T07:44:50.000Z</time>
      </trkpt>
      <trkpt lat="33.429569" lon="-111.960745">
        <ele>347.985979</ele>
        <time>2024-04-28T07:44:52.000Z</time>
      </trkpt>
      <trkpt lat="33.429704" lon="-111.960332">
        <ele>347.999895</ele>
        <time>2024-04-28T07:44:56.000Z</time>
      </trkpt>
      <trkpt lat="33.429957" lon="-111.95977">
        <ele>348.000012</ele>
        <time>2024-04-28T07:45:02.000Z</time>
      </trkpt>
      <trkpt lat="33.430047" lon="-111.959603">
        <ele>348.000003</ele>
        <time>2024-04-28T07:45:04.000Z</time>
      </trkpt>
      <trkpt lat="33.430117" lon="-111.95945">
        <ele>348.000009</ele>
        <time>2024-04-28T07:45:06.000Z</time>
      </trkpt>
      <trkpt lat="33.43065" lon="-111.958272">
        <ele>348.014128</ele>
        <time>2024-04-28T07:45:18.000Z</time>
      </trkpt>
      <trkpt lat="33.430772" lon="-111.957651">
        <ele>348.064213</ele>
        <time>2024-04-28T07:45:24.000Z</time>
      </trkpt>
      <trkpt lat="33.430816" lon="-111.957162">
        <ele>348.10107</ele>
        <time>2024-04-28T07:45:29.000Z</time>
      </trkpt>
      <trkpt lat="33.43077" lon="-111.956742">
        <ele>348.13258</ele>
        <time>2024-04-28T07:45:33.000Z</time>
      </trkpt>
      <trkpt lat="33.430534" lon="-111.955509">
        <ele>348.519415</ele>
        <time>2024-04-28T07:45:45.000Z</time>
      </trkpt>
      <trkpt lat="33.430466" lon="-111.954848">
        <ele>348.797608</ele>
        <time>2024-04-28T07:45:51.000Z</time>
      </trkpt>
      <trkpt lat="33.430521" lon="-111.954067">
        <ele>349.122325</ele>
        <time>2024-04-28T07:45:58.000Z</time>
      </trkpt>
      <trkpt lat="33.430722" lon="-111.953226">
        <ele>349.478896</ele>
        <time>2024-04-28T07:46:06.000Z</time>
      </trkpt>
      <trkpt lat="33.430897" lon="-111.952396">
        <ele>349.829604</ele>
        <time>2024-04-28T07:46:14.000Z</time>
      </trkpt>
      <trkpt lat="33.430923" lon="-111.952256">
        <ele>349.886212</ele>
        <time>2024-04-28T07:46:15.000Z</time>
      </trkpt>
      <trkpt lat="33.43095" lon="-111.951393">
        <ele>349.851416</ele>
        <time>2024-04-28T07:46:23.000Z</time>
      </trkpt>
      <trkpt lat="33.430822" lon="-111.950159">
        <ele>349.701191</ele>
        <time>2024-04-28T07:46:35.000Z</time>
      </trkpt>
      <trkpt lat="33.430771" lon="-111.949666">
        <ele>349.641179</ele>
        <time>2024-04-28T07:46:40.000Z</time>
      </trkpt>
      <trkpt lat="33.430714" lon="-111.948966">
        <ele>349.555472</ele>
        <time>2024-04-28T07:46:47.000Z</time>
      </trkpt>
      <trkpt lat="33.430766" lon="-111.947772">
        <ele>349.412259</ele>
        <time>2024-04-28T07:46:58.000Z</time>
      </trkpt>
      <trkpt lat="33.430801" lon="-111.947432">
        <ele>349.382777</ele>
        <time>2024-04-28T07:47:01.000Z</time>
      </trkpt>
      <trkpt lat="33.430818" lon="-111.947345">
        <ele>349.375227</ele>
        <time>2024-04-28T07:47:02.000Z</time>
      </trkpt>
      <trkpt lat="33.43132" lon="-111.945374">
        <ele>349.305198</ele>
        <time>2024-04-28T07:47:21.000Z</time>
      </trkpt>
      <trkpt lat="33.431486" lon="-111.944654">
        <ele>349.437598</ele>
        <time>2024-04-28T07:47:28.000Z</time>
      </trkpt>
      <trkpt lat="33.431544" lon="-111.943516">
        <ele>349.71162</ele>
        <time>2024-04-28T07:47:39.000Z</time>
      </trkpt>
      <trkpt lat="33.431493" lon="-111.943425">
        <ele>349.804954</ele>
        <time>2024-04-28T07:47:40.000Z</time>
      </trkpt>
      <trkpt lat="33.4313" lon="-111.943376">
        <ele>349.980865</ele>
        <time>2024-04-28T07:47:42.000Z</time>
      </trkpt>
      <trkpt lat="33.431296" lon="-111.943374">
        <ele>349.980868</ele>
        <time>2024-04-28T07:47:42.000Z</time>
      </trkpt>
      <trkpt lat="33.431235" lon="-111.943365">
        <ele>350.044626</ele>
        <time>2024-04-28T07:47:43.000Z</time>
      </trkpt>
      <trkpt lat="33.431235" lon="-111.943373">
        <ele>350.044619</ele>
        <time>2024-04-28T07:47:43.000Z</time>
      </trkpt>
      <trkpt lat="33.430914" lon="-111.943363">
        <ele>350.31935</ele>
        <time>2024-04-28T07:47:47.000Z</time>
      </trkpt>
      <trkpt lat="33.430725" lon="-111.943343">
        <ele>350.496229</ele>
        <time>2024-04-28T07:47:49.000Z</time>
      </trkpt>
      <trkpt lat="33.430187" lon="-111.9433">
        <ele>350.974297</ele>
        <time>2024-04-28T07:47:55.000Z</time>
      </trkpt>
      <trkpt lat="33.429774" lon="-111.943137">
        <ele>351.36082</ele>
        <time>2024-04-28T07:48:00.000Z</time>
      </trkpt>
      <trkpt lat="33.429692" lon="-111.943072">
        <ele>351.451772</ele>
        <time>2024-04-28T07:48:01.000Z</time>
      </trkpt>
      <trkpt lat="33.429645" lon="-111.943025">
        <ele>351.516041</ele>
        <time>2024-04-28T07:48:02.000Z</time>
      </trkpt>
      <trkpt lat="33.42952" lon="-111.942891">
        <ele>351.662588</ele>
        <time>2024-04-28T07:48:04.000Z</time>
      </trkpt>
      <trkpt lat="33.42938" lon="-111.942856">
        <ele>351.785979</ele>
        <time>2024-04-28T07:48:06.000Z</time>
      </trkpt>
      <trkpt lat="33.429332" lon="-111.942865">
        <ele>351.832932</ele>
        <time>2024-04-28T07:48:07.000Z</time>
      </trkpt>
      <trkpt lat="33.429246" lon="-111.942853">
        <ele>351.906738</ele>
        <time>2024-04-28T07:48:08.000Z</time>
      </trkpt>
      <trkpt lat="33.429189" lon="-111.942738">
        <ele>352.001585</ele>
        <time>2024-04-28T07:48:09.000Z</time>
      </trkpt>
      <trkpt lat="33.429229" lon="-111.942556">
        <ele>352.148745</ele>
        <time>2024-04-28T07:48:11.000Z</time>
      </trkpt>
      <trkpt lat="33.429265" lon="-111.942532">
        <ele>352.191838</ele>
        <time>2024-04-28T07:48:11.000Z</time>
      </trkpt>
      <trkpt lat="33.429318" lon="-111.942458">
        <ele>352.250503</ele>
        <time>2024-04-28T07:48:12.000Z</time>
      </trkpt>
      <trkpt lat="33.429409" lon="-111.942238">
        <ele>352.443038</ele>
        <time>2024-04-28T07:48:14.000Z</time>
      </trkpt>
      <trkpt lat="33.429445" lon="-111.941349">
        <ele>353.569399</ele>
        <time>2024-04-28T07:48:22.000Z</time>
      </trkpt>
      <trkpt lat="33.429502" lon="-111.940743">
        <ele>354.815462</ele>
        <time>2024-04-28T07:48:28.000Z</time>
      </trkpt>
      <trkpt lat="33.429513" lon="-111.940674">
        <ele>354.931018</ele>
        <time>2024-04-28T07:48:29.000Z</time>
      </trkpt>
      <trkpt lat="33.429561" lon="-111.940179">
        <ele>355.97123</ele>
        <time>2024-04-28T07:48:34.000Z</time>
      </trkpt>
      <trkpt lat="33.42956" lon="-111.940094">
        <ele>356.159094</ele>
        <time>2024-04-28T07:48:35.000Z</time>
      </trkpt>
      <trkpt lat="33.42957" lon="-111.939968">
        <ele>356.41363</ele>
        <time>2024-04-28T07:48:36.000Z</time>
      </trkpt>
      <trkpt lat="33.429593" lon="-111.939852">
        <ele>356.643895</ele>
        <time>2024-04-28T07:48:37.000Z</time>
      </trkpt>
      <trkpt lat="33.429593" lon="-111.939818">
        <ele>356.699384</ele>
        <time>2024-04-28T07:48:37.000Z</time>
      </trkpt>
      <trkpt lat="33.429646" lon="-111.939209">
        <ele>357.456321</ele>
        <time>2024-04-28T07:48:43.000Z</time>
      </trkpt>
      <trkpt lat="33.429706" lon="-111.938781">
        <ele>357.712443</ele>
        <time>2024-04-28T07:48:47.000Z</time>
      </trkpt>
      <trkpt lat="33.429844" lon="-111.938488">
        <ele>357.909599</ele>
        <time>2024-04-28T07:48:50.000Z</time>
      </trkpt>
      <trkpt lat="33.430004" lon="-111.938188">
        <ele>358.119463</ele>
        <time>2024-04-28T07:48:53.000Z</time>
      </trkpt>
      <trkpt lat="33.430374" lon="-111.937543">
        <ele>358.248747</ele>
        <time>2024-04-28T07:49:00.000Z</time>
      </trkpt>
      <trkpt lat="33.430404" lon="-111.937412">
        <ele>357.929371</ele>
        <time>2024-04-28T07:49:01.000Z</time>
      </trkpt>
      <trkpt lat="33.430557" lon="-111.936834">
        <ele>356.412129</ele>
        <time>2024-04-28T07:49:07.000Z</time>
      </trkpt>
      <trkpt lat="33.430563" lon="-111.936456">
        <ele>355.491764</ele>
        <time>2024-04-28T07:49:11.000Z</time>
      </trkpt>
      <trkpt lat="33.430529" lon="-111.936091">
        <ele>354.532712</ele>
        <time>2024-04-28T07:49:14.000Z</time>
      </trkpt>
      <trkpt lat="33.430437" lon="-111.935651">
        <ele>353.395889</ele>
        <time>2024-04-28T07:49:18.000Z</time>
      </trkpt>
      <trkpt lat="33.430058" lon="-111.934922">
        <ele>352.260271</ele>
        <time>2024-04-28T07:49:26.000Z</time>
      </trkpt>
      <trkpt lat="33.429873" lon="-111.934665">
        <ele>351.863808</ele>
        <time>2024-04-28T07:49:29.000Z</time>
      </trkpt>
      <trkpt lat="33.42981" lon="-111.934594">
        <ele>351.734962</ele>
        <time>2024-04-28T07:49:30.000Z</time>
      </trkpt>
      <trkpt lat="33.429491" lon="-111.934049">
        <ele>350.962022</ele>
        <time>2024-04-28T07:49:36.000Z</time>
      </trkpt>
      <trkpt lat="33.429356" lon="-111.933791">
        <ele>350.599426</ele>
        <time>2024-04-28T07:49:39.000Z</time>
      </trkpt>
      <trkpt lat="33.429302" lon="-111.933556">
        <ele>350.609852</ele>
        <time>2024-04-28T07:49:41.000Z</time>
      </trkpt>
      <trkpt lat="33.429251" lon="-111.932195">
        <ele>350.676425</ele>
        <time>2024-04-28T07:49:54.000Z</time>
      </trkpt>
      <trkpt lat="33.429037" lon="-111.93129">
        <ele>350.752018</ele>
        <time>2024-04-28T07:50:03.000Z</time>
      </trkpt>
      <trkpt lat="33.428841" lon="-111.930761">
        <ele>350.824202</ele>
        <time>2024-04-28T07:50:08.000Z</time>
      </trkpt>
      <trkpt lat="33.428709" lon="-111.930128">
        <ele>350.907713</ele>
        <time>2024-04-28T07:50:14.000Z</time>
      </trkpt>
      <trkpt lat="33.4287" lon="-111.930085">
        <ele>350.912037</ele>
        <time>2024-04-28T07:50:14.000Z</time>
      </trkpt>
      <trkpt lat="33.428671" lon="-111.92946">
        <ele>350.990581</ele>
        <time>2024-04-28T07:50:20.000Z</time>
      </trkpt>
      <trkpt lat="33.428664" lon="-111.92931">
        <ele>351.010388</ele>
        <time>2024-04-28T07:50:21.000Z</time>
      </trkpt>
      <trkpt lat="33.428676" lon="-111.929139">
        <ele>351.031789</ele>
        <time>2024-04-28T07:50:23.000Z</time>
      </trkpt>
      <trkpt lat="33.428768" lon="-111.928359">
        <ele>351.12711</ele>
        <time>2024-04-28T07:50:30.000Z</time>
      </trkpt>
      <trkpt lat="33.428818" lon="-111.927958">
        <ele>351.177432</ele>
        <time>2024-04-28T07:50:34.000Z</time>
      </trkpt>
      <trkpt lat="33.428833" lon="-111.927205">
        <ele>351.247399</ele>
        <time>2024-04-28T07:50:41.000Z</time>
      </trkpt>
      <trkpt lat="33.428789" lon="-111.926494">
        <ele>351.270657</ele>
        <time>2024-04-28T07:50:48.000Z</time>
      </trkpt>
      <trkpt lat="33.42879" lon="-111.926283">
        <ele>351.277398</ele>
        <time>2024-04-28T07:50:50.000Z</time>
      </trkpt>
      <trkpt lat="33.428902" lon="-111.926276">
        <ele>351.281723</ele>
        <time>2024-04-28T07:50:51.000Z</time>
      </trkpt>
      <trkpt lat="33.4289" lon="-111.926523">
        <ele>351.289491</ele>
        <time>2024-04-28T07:50:53.000Z</time>
      </trkpt>
      <trkpt lat="33.428965" lon="-111.927458">
        <ele>351.268374</ele>
        <time>2024-04-28T07:51:02.000Z</time>
      </trkpt>
      <trkpt lat="33.428968" lon="-111.927578">
        <ele>351.254383</ele>
        <time>2024-04-28T07:51:03.000Z</time>
      </trkpt>
      <trkpt lat="33.428953" lon="-111.927935">
        <ele>351.212316</ele>
        <time>2024-04-28T07:51:06.000Z</time>
      </trkpt>
      <trkpt lat="33.428863" lon="-111.928448">
        <ele>351.147519</ele>
        <time>2024-04-28T07:51:11.000Z</time>
      </trkpt>
      <trkpt lat="33.428784" lon="-111.929124">
        <ele>351.066618</ele>
        <time>2024-04-28T07:51:17.000Z</time>
      </trkpt>
      <trkpt lat="33.428788" lon="-111.929296">
        <ele>351.044099</ele>
        <time>2024-04-28T07:51:19.000Z</time>
      </trkpt>
      <trkpt lat="33.42878" lon="-111.929483">
        <ele>351.020464</ele>
        <time>2024-04-28T07:51:21.000Z</time>
      </trkpt>
      <trkpt lat="33.428798" lon="-111.929786">
        <ele>350.978992</ele>
        <time>2024-04-28T07:51:24.000Z</time>
      </trkpt>
      <trkpt lat="33.428821" lon="-111.93005">
        <ele>350.944628</ele>
        <time>2024-04-28T07:51:26.000Z</time>
      </trkpt>
      <trkpt lat="33.428921" lon="-111.930542">
        <ele>350.877032</ele>
        <time>2024-04-28T07:51:31.000Z</time>
      </trkpt>
      <trkpt lat="33.428962" lon="-111.930712">
        <ele>350.850985</ele>
        <time>2024-04-28T07:51:33.000Z</time>
      </trkpt>
      <trkpt lat="33.429135" lon="-111.931254">
        <ele>350.774886</ele>
        <time>2024-04-28T07:51:38.000Z</time>
      </trkpt>
      <trkpt lat="33.429258" lon="-111.931194">
        <ele>350.750782</ele>
        <time>2024-04-28T07:51:39.000Z</time>
      </trkpt>
      <trkpt lat="33.429461" lon="-111.931852">
        <ele>350.557698</ele>
        <time>2024-04-28T07:51:46.000Z</time>
      </trkpt>
      <trkpt lat="33.429463" lon="-111.931888">
        <ele>350.547776</ele>
        <time>2024-04-28T07:51:46.000Z</time>
      </trkpt>
      <trkpt lat="33.429527" lon="-111.932345">
        <ele>350.41982</ele>
        <time>2024-04-28T07:51:50.000Z</time>
      </trkpt>
      <trkpt lat="33.429532" lon="-111.933025">
        <ele>350.234814</ele>
        <time>2024-04-28T07:51:56.000Z</time>
      </trkpt>
      <trkpt lat="33.42954" lon="-111.933338">
        <ele>350.181296</ele>
        <time>2024-04-28T07:51:59.000Z</time>
      </trkpt>
      <trkpt lat="33.429705" lon="-111.933936">
        <ele>350.30937</ele>
        <time>2024-04-28T07:52:05.000Z</time>
      </trkpt>
      <trkpt lat="33.429635" lon="-111.933976">
        <ele>350.326729</ele>
        <time>2024-04-28T07:52:06.000Z</time>
      </trkpt>
      <trkpt lat="33.429846" lon="-111.934324">
        <ele>350.412876</ele>
        <time>2024-04-28T07:52:10.000Z</time>
      </trkpt>
      <trkpt lat="33.430326" lon="-111.935062">
        <ele>350.603767</ele>
        <time>2024-04-28T07:52:19.000Z</time>
      </trkpt>
      <trkpt lat="33.430369" lon="-111.935026">
        <ele>350.711511</ele>
        <time>2024-04-28T07:52:20.000Z</time>
      </trkpt>
      <trkpt lat="33.430599" lon="-111.935506">
        <ele>351.696922</ele>
        <time>2024-04-28T07:52:25.000Z</time>
      </trkpt>
      <trkpt lat="33.430688" lon="-111.935921">
        <ele>352.469309</ele>
        <time>2024-04-28T07:52:29.000Z</time>
      </trkpt>
      <trkpt lat="33.430757" lon="-111.936245">
        <ele>353.063307</ele>
        <time>2024-04-28T07:52:32.000Z</time>
      </trkpt>
      <trkpt lat="33.430756" lon="-111.936741">
        <ele>353.961209</ele>
        <time>2024-04-28T07:52:37.000Z</time>
      </trkpt>
      <trkpt lat="33.430768" lon="-111.936833">
        <ele>354.111758</ele>
        <time>2024-04-28T07:52:38.000Z</time>
      </trkpt>
      <trkpt lat="33.430632" lon="-111.937505">
        <ele>354.93047</ele>
        <time>2024-04-28T07:52:44.000Z</time>
      </trkpt>
      <trkpt lat="33.430592" lon="-111.937585">
        <ele>355.010098</ele>
        <time>2024-04-28T07:52:45.000Z</time>
      </trkpt>
      <trkpt lat="33.430552" lon="-111.937674">
        <ele>355.121945</ele>
        <time>2024-04-28T07:52:46.000Z</time>
      </trkpt>
      <trkpt lat="33.430545" lon="-111.93767">
        <ele>355.121933</ele>
        <time>2024-04-28T07:52:46.000Z</time>
      </trkpt>
      <trkpt lat="33.430549" lon="-111.937684">
        <ele>355.121951</ele>
        <time>2024-04-28T07:52:46.000Z</time>
      </trkpt>
      <trkpt lat="33.43052" lon="-111.93766">
        <ele>355.140775</ele>
        <time>2024-04-28T07:52:46.000Z</time>
      </trkpt>
      <trkpt lat="33.430496" lon="-111.937629">
        <ele>355.194383</ele>
        <time>2024-04-28T07:52:46.000Z</time>
      </trkpt>
      <trkpt lat="33.430075" lon="-111.938426">
        <ele>356.07364</ele>
        <time>2024-04-28T07:52:55.000Z</time>
      </trkpt>
      <trkpt lat="33.429968" lon="-111.938592">
        <ele>356.262193</ele>
        <time>2024-04-28T07:52:57.000Z</time>
      </trkpt>
      <trkpt lat="33.429817" lon="-111.938901">
        <ele>356.258562</ele>
        <time>2024-04-28T07:53:00.000Z</time>
      </trkpt>
      <trkpt lat="33.42977" lon="-111.939142">
        <ele>355.816815</ele>
        <time>2024-04-28T07:53:02.000Z</time>
      </trkpt>
      <trkpt lat="33.429701" lon="-111.939839">
        <ele>354.484531</ele>
        <time>2024-04-28T07:53:09.000Z</time>
      </trkpt>
      <trkpt lat="33.429683" lon="-111.939966">
        <ele>354.239782</ele>
        <time>2024-04-28T07:53:10.000Z</time>
      </trkpt>
      <trkpt lat="33.42975" lon="-111.93997">
        <ele>354.093121</ele>
        <time>2024-04-28T07:53:11.000Z</time>
      </trkpt>
      <trkpt lat="33.430193" lon="-111.939987">
        <ele>353.073005</ele>
        <time>2024-04-28T07:53:16.000Z</time>
      </trkpt>
      <trkpt lat="33.43125" lon="-111.940073">
        <ele>351.372461</ele>
        <time>2024-04-28T07:53:28.000Z</time>
      </trkpt>
      <trkpt lat="33.431675" lon="-111.940135">
        <ele>350.775434</ele>
        <time>2024-04-28T07:53:33.000Z</time>
      </trkpt>
      <trkpt lat="33.432474" lon="-111.9403">
        <ele>349.969685</ele>
        <time>2024-04-28T07:53:42.000Z</time>
      </trkpt>
      <trkpt lat="33.433374" lon="-111.940638">
        <ele>350.021981</ele>
        <time>2024-04-28T07:53:52.000Z</time>
      </trkpt>
      <trkpt lat="33.434422" lon="-111.94112">
        <ele>350.615549</ele>
        <time>2024-04-28T07:54:04.000Z</time>
      </trkpt>
      <trkpt lat="33.435283" lon="-111.941676">
        <ele>351.77437</ele>
        <time>2024-04-28T07:54:15.000Z</time>
      </trkpt>
      <trkpt lat="33.435699" lon="-111.941984">
        <ele>352.660118</ele>
        <time>2024-04-28T07:54:20.000Z</time>
      </trkpt>
      <trkpt lat="33.436541" lon="-111.942701">
        <ele>355.956134</ele>
        <time>2024-04-28T07:54:31.000Z</time>
      </trkpt>
      <trkpt lat="33.436754" lon="-111.942862">
        <ele>356.791586</ele>
        <time>2024-04-28T07:54:34.000Z</time>
      </trkpt>
      <trkpt lat="33.436986" lon="-111.943014">
        <ele>357.635193</ele>
        <time>2024-04-28T07:54:37.000Z</time>
      </trkpt>
      <trkpt lat="33.437457" lon="-111.94324">
        <ele>359.064098</ele>
        <time>2024-04-28T07:54:43.000Z</time>
      </trkpt>
      <trkpt lat="33.437568" lon="-111.943275">
        <ele>359.335944</ele>
        <time>2024-04-28T07:54:44.000Z</time>
      </trkpt>
      <trkpt lat="33.437616" lon="-111.943138">
        <ele>359.667547</ele>
        <time>2024-04-28T07:54:45.000Z</time>
      </trkpt>
      <trkpt lat="33.438015" lon="-111.942087">
        <ele>362.262881</ele>
        <time>2024-04-28T07:54:56.000Z</time>
      </trkpt>
      <trkpt lat="33.43823" lon="-111.941554">
        <ele>363.378569</ele>
        <time>2024-04-28T07:55:01.000Z</time>
      </trkpt>
      <trkpt lat="33.438692" lon="-111.940318">
        <ele>365.558606</ele>
        <time>2024-04-28T07:55:14.000Z</time>
      </trkpt>
      <trkpt lat="33.438842" lon="-111.939732">
        <ele>366.390841</ele>
        <time>2024-04-28T07:55:20.000Z</time>
      </trkpt>
      <trkpt lat="33.438965" lon="-111.939001">
        <ele>366.837805</ele>
        <time>2024-04-28T07:55:27.000Z</time>
      </trkpt>
      <trkpt lat="33.439164" lon="-111.937287">
        <ele>367.39328</ele>
        <time>2024-04-28T07:55:43.000Z</time>
      </trkpt>
      <trkpt lat="33.439437" lon="-111.936622">
        <ele>367.077778</ele>
        <time>2024-04-28T07:55:50.000Z</time>
      </trkpt>
      <trkpt lat="33.439907" lon="-111.935726">
        <ele>366.454314</ele>
        <time>2024-04-28T07:56:00.000Z</time>
      </trkpt>
      <trkpt lat="33.440035" lon="-111.935232">
        <ele>365.580785</ele>
        <time>2024-04-28T07:56:05.000Z</time>
      </trkpt>
      <trkpt lat="33.440106" lon="-111.934497">
        <ele>364.287203</ele>
        <time>2024-04-28T07:56:12.000Z</time>
      </trkpt>
      <trkpt lat="33.440158" lon="-111.931586">
        <ele>357.965286</ele>
        <time>2024-04-28T07:56:39.000Z</time>
      </trkpt>
      <trkpt lat="33.440177" lon="-111.930983">
        <ele>357.771212</ele>
        <time>2024-04-28T07:56:45.000Z</time>
      </trkpt>
      <trkpt lat="33.44018" lon="-111.930885">
        <ele>357.742028</ele>
        <time>2024-04-28T07:56:46.000Z</time>
      </trkpt>
      <trkpt lat="33.440226" lon="-111.930793">
        <ele>357.712472</ele>
        <time>2024-04-28T07:56:47.000Z</time>
      </trkpt>
      <trkpt lat="33.440363" lon="-111.930789">
        <ele>357.661837</ele>
        <time>2024-04-28T07:56:49.000Z</time>
      </trkpt>
      <trkpt lat="33.440762" lon="-111.930788">
        <ele>357.530096</ele>
        <time>2024-04-28T07:56:53.000Z</time>
      </trkpt>
      <trkpt lat="33.441281" lon="-111.930808">
        <ele>357.347986</ele>
        <time>2024-04-28T07:56:59.000Z</time>
      </trkpt>
      <trkpt lat="33.441764" lon="-111.93092">
        <ele>358.256248</ele>
        <time>2024-04-28T07:57:04.000Z</time>
      </trkpt>
      <trkpt lat="33.442027" lon="-111.931076">
        <ele>358.908504</ele>
        <time>2024-04-28T07:57:07.000Z</time>
      </trkpt>
      <trkpt lat="33.442441" lon="-111.931424">
        <ele>360.027159</ele>
        <time>2024-04-28T07:57:13.000Z</time>
      </trkpt>
      <trkpt lat="33.443082" lon="-111.932129">
        <ele>362.040864</ele>
        <time>2024-04-28T07:57:23.000Z</time>
      </trkpt>
      <trkpt lat="33.443379" lon="-111.932396">
        <ele>362.993995</ele>
        <time>2024-04-28T07:57:27.000Z</time>
      </trkpt>
      <trkpt lat="33.443733" lon="-111.932562">
        <ele>363.944985</ele>
        <time>2024-04-28T07:57:31.000Z</time>
      </trkpt>
      <trkpt lat="33.444762" lon="-111.932921">
        <ele>366.594674</ele>
        <time>2024-04-28T07:57:43.000Z</time>
      </trkpt>
      <trkpt lat="33.445206" lon="-111.933241">
        <ele>367.864399</ele>
        <time>2024-04-28T07:57:49.000Z</time>
      </trkpt>
      <trkpt lat="33.446104" lon="-111.934536">
        <ele>370.839314</ele>
        <time>2024-04-28T07:58:05.000Z</time>
      </trkpt>
      <trkpt lat="33.446386" lon="-111.934852">
        <ele>371.397819</ele>
        <time>2024-04-28T07:58:09.000Z</time>
      </trkpt>
      <trkpt lat="33.446721" lon="-111.935022">
        <ele>371.95053</ele>
        <time>2024-04-28T07:58:13.000Z</time>
      </trkpt>
      <trkpt lat="33.447362" lon="-111.935098">
        <ele>372.812508</ele>
        <time>2024-04-28T07:58:20.000Z</time>
      </trkpt>
      <trkpt lat="33.447849" lon="-111.935114">
        <ele>372.784246</ele>
        <time>2024-04-28T07:58:25.000Z</time>
      </trkpt>
      <trkpt lat="33.449443" lon="-111.935138">
        <ele>372.699137</ele>
        <time>2024-04-28T07:58:43.000Z</time>
      </trkpt>
      <trkpt lat="33.449821" lon="-111.935145">
        <ele>372.687951</ele>
        <time>2024-04-28T07:58:47.000Z</time>
      </trkpt>
      <trkpt lat="33.450258" lon="-111.935157">
        <ele>372.675501</ele>
        <time>2024-04-28T07:58:52.000Z</time>
      </trkpt>
      <trkpt lat="33.450424" lon="-111.935159">
        <ele>372.670711</ele>
        <time>2024-04-28T07:58:54.000Z</time>
      </trkpt>
      <trkpt lat="33.450452" lon="-111.935176">
        <ele>372.669716</ele>
        <time>2024-04-28T07:58:54.000Z</time>
      </trkpt>
      <trkpt lat="33.450509" lon="-111.935213">
        <ele>372.667756</ele>
        <time>2024-04-28T07:58:55.000Z</time>
      </trkpt>
      <trkpt lat="33.450462" lon="-111.93523">
        <ele>372.666162</ele>
        <time>2024-04-28T07:58:56.000Z</time>
      </trkpt>
      <trkpt lat="33.450404" lon="-111.935258">
        <ele>372.664494</ele>
        <time>2024-04-28T07:58:57.000Z</time>
      </trkpt>
      <trkpt lat="33.448636" lon="-111.935219">
        <ele>373.091065</ele>
        <time>2024-04-28T07:59:17.000Z</time>
      </trkpt>
      <trkpt lat="33.447848" lon="-111.9352">
        <ele>372.85614</ele>
        <time>2024-04-28T07:59:26.000Z</time>
      </trkpt>
      <trkpt lat="33.447375" lon="-111.935201">
        <ele>372.530104</ele>
        <time>2024-04-28T07:59:31.000Z</time>
      </trkpt>
      <trkpt lat="33.446896" lon="-111.935176">
        <ele>372.184706</ele>
        <time>2024-04-28T07:59:36.000Z</time>
      </trkpt>
      <trkpt lat="33.44634" lon="-111.934922">
        <ele>371.47999</ele>
        <time>2024-04-28T07:59:43.000Z</time>
      </trkpt>
      <trkpt lat="33.446166" lon="-111.934785">
        <ele>371.033027</ele>
        <time>2024-04-28T07:59:45.000Z</time>
      </trkpt>
      <trkpt lat="33.445673" lon="-111.934089">
        <ele>369.437794</ele>
        <time>2024-04-28T07:59:53.000Z</time>
      </trkpt>
      <trkpt lat="33.445377" lon="-111.933613">
        <ele>368.427784</ele>
        <time>2024-04-28T07:59:59.000Z</time>
      </trkpt>
      <trkpt lat="33.445139" lon="-111.933319">
        <ele>367.612856</ele>
        <time>2024-04-28T08:00:03.000Z</time>
      </trkpt>
      <trkpt lat="33.444716" lon="-111.933002">
        <ele>366.363335</ele>
        <time>2024-04-28T08:00:09.000Z</time>
      </trkpt>
      <trkpt lat="33.443858" lon="-111.93271">
        <ele>364.107302</ele>
        <time>2024-04-28T08:00:19.000Z</time>
      </trkpt>
      <trkpt lat="33.443339" lon="-111.93248">
        <ele>362.719143</ele>
        <time>2024-04-28T08:00:25.000Z</time>
      </trkpt>
      <trkpt lat="33.442769" lon="-111.931946">
        <ele>360.849559</ele>
        <time>2024-04-28T08:00:33.000Z</time>
      </trkpt>
      <trkpt lat="33.442377" lon="-111.931511">
        <ele>359.447269</ele>
        <time>2024-04-28T08:00:39.000Z</time>
      </trkpt>
      <trkpt lat="33.442153" lon="-111.931278">
        <ele>358.925046</ele>
        <time>2024-04-28T08:00:42.000Z</time>
      </trkpt>
      <trkpt lat="33.44173" lon="-111.93102">
        <ele>358.505287</ele>
        <time>2024-04-28T08:00:47.000Z</time>
      </trkpt>
      <trkpt lat="33.441311" lon="-111.930915">
        <ele>358.125407</ele>
        <time>2024-04-28T08:00:52.000Z</time>
      </trkpt>
      <trkpt lat="33.440845" lon="-111.930899">
        <ele>357.70837</ele>
        <time>2024-04-28T08:00:57.000Z</time>
      </trkpt>
      <trkpt lat="33.440376" lon="-111.930892">
        <ele>357.835033</ele>
        <time>2024-04-28T08:01:02.000Z</time>
      </trkpt>
      <trkpt lat="33.440292" lon="-111.930885">
        <ele>358.012841</ele>
        <time>2024-04-28T08:01:03.000Z</time>
      </trkpt>
      <trkpt lat="33.440293" lon="-111.930977">
        <ele>358.196915</ele>
        <time>2024-04-28T08:01:04.000Z</time>
      </trkpt>
      <trkpt lat="33.440171" lon="-111.93509">
        <ele>366.106029</ele>
        <time>2024-04-28T08:01:42.000Z</time>
      </trkpt>
      <trkpt lat="33.44001" lon="-111.935778">
        <ele>366.8291</ele>
        <time>2024-04-28T08:01:49.000Z</time>
      </trkpt>
      <trkpt lat="33.439431" lon="-111.936903">
        <ele>368.004276</ele>
        <time>2024-04-28T08:02:01.000Z</time>
      </trkpt>
      <trkpt lat="33.439281" lon="-111.937336">
        <ele>367.647964</ele>
        <time>2024-04-28T08:02:05.000Z</time>
      </trkpt>
      <trkpt lat="33.439201" lon="-111.93781">
        <ele>367.271811</ele>
        <time>2024-04-28T08:02:09.000Z</time>
      </trkpt>
      <trkpt lat="33.439016" lon="-111.939523">
        <ele>365.579602</ele>
        <time>2024-04-28T08:02:25.000Z</time>
      </trkpt>
      <trkpt lat="33.438804" lon="-111.94036">
        <ele>364.427353</ele>
        <time>2024-04-28T08:02:33.000Z</time>
      </trkpt>
      <trkpt lat="33.438575" lon="-111.940978">
        <ele>363.533057</ele>
        <time>2024-04-28T08:02:39.000Z</time>
      </trkpt>
      <trkpt lat="33.438349" lon="-111.941611">
        <ele>363.007462</ele>
        <time>2024-04-28T08:02:45.000Z</time>
      </trkpt>
      <trkpt lat="33.43821" lon="-111.941955">
        <ele>362.719172</ele>
        <time>2024-04-28T08:02:49.000Z</time>
      </trkpt>
      <trkpt lat="33.438021" lon="-111.942487">
        <ele>362.284782</ele>
        <time>2024-04-28T08:02:54.000Z</time>
      </trkpt>
      <trkpt lat="33.437849" lon="-111.942972">
        <ele>361.907255</ele>
        <time>2024-04-28T08:02:59.000Z</time>
      </trkpt>
      <trkpt lat="33.437766" lon="-111.94318">
        <ele>361.838801</ele>
        <time>2024-04-28T08:03:01.000Z</time>
      </trkpt>
      <trkpt lat="33.437705" lon="-111.943304">
        <ele>361.796545</ele>
        <time>2024-04-28T08:03:02.000Z</time>
      </trkpt>
      <trkpt lat="33.43815" lon="-111.943461">
        <ele>361.641578</ele>
        <time>2024-04-28T08:03:07.000Z</time>
      </trkpt>
      <trkpt lat="33.438306" lon="-111.943523">
        <ele>361.581601</ele>
        <time>2024-04-28T08:03:09.000Z</time>
      </trkpt>
      <trkpt lat="33.438689" lon="-111.94369">
        <ele>361.440852</ele>
        <time>2024-04-28T08:03:14.000Z</time>
      </trkpt>
      <trkpt lat="33.438981" lon="-111.943871">
        <ele>361.327663</ele>
        <time>2024-04-28T08:03:18.000Z</time>
      </trkpt>
      <trkpt lat="33.439217" lon="-111.944016">
        <ele>361.322257</ele>
        <time>2024-04-28T08:03:21.000Z</time>
      </trkpt>
      <trkpt lat="33.44045" lon="-111.945001">
        <ele>361.553844</ele>
        <time>2024-04-28T08:03:37.000Z</time>
      </trkpt>
      <trkpt lat="33.440996" lon="-111.945468">
        <ele>361.903963</ele>
        <time>2024-04-28T08:03:44.000Z</time>
      </trkpt>
      <trkpt lat="33.442113" lon="-111.946418">
        <ele>362.752699</ele>
        <time>2024-04-28T08:03:59.000Z</time>
      </trkpt>
      <trkpt lat="33.444579" lon="-111.94859">
        <ele>363.976466</ele>
        <time>2024-04-28T08:04:33.000Z</time>
      </trkpt>
      <trkpt lat="33.444395" lon="-111.94887">
        <ele>364.004589</ele>
        <time>2024-04-28T08:04:36.000Z</time>
      </trkpt>
      <trkpt lat="33.444221" lon="-111.948978">
        <ele>363.937942</ele>
        <time>2024-04-28T08:04:38.000Z</time>
      </trkpt>
      <trkpt lat="33.443029" lon="-111.948319">
        <ele>362.080151</ele>
        <time>2024-04-28T08:04:53.000Z</time>
      </trkpt>
      <trkpt lat="33.442276" lon="-111.947747">
        <ele>361.225838</ele>
        <time>2024-04-28T08:05:03.000Z</time>
      </trkpt>
      <trkpt lat="33.442027" lon="-111.947419">
        <ele>361.024726</ele>
        <time>2024-04-28T08:05:07.000Z</time>
      </trkpt>
      <trkpt lat="33.441826" lon="-111.947105">
        <ele>360.848691</ele>
        <time>2024-04-28T08:05:11.000Z</time>
      </trkpt>
      <trkpt lat="33.441691" lon="-111.946873">
        <ele>360.723312</ele>
        <time>2024-04-28T08:05:14.000Z</time>
      </trkpt>
      <trkpt lat="33.44125" lon="-111.946136">
        <ele>360.575677</ele>
        <time>2024-04-28T08:05:22.000Z</time>
      </trkpt>
      <trkpt lat="33.440852" lon="-111.945613">
        <ele>360.689185</ele>
        <time>2024-04-28T08:05:29.000Z</time>
      </trkpt>
      <trkpt lat="33.440354" lon="-111.945051">
        <ele>360.820146</ele>
        <time>2024-04-28T08:05:37.000Z</time>
      </trkpt>
      <trkpt lat="33.439619" lon="-111.94444">
        <ele>360.567986</ele>
        <time>2024-04-28T08:05:47.000Z</time>
      </trkpt>
      <trkpt lat="33.439165" lon="-111.944105">
        <ele>360.361114</ele>
        <time>2024-04-28T08:05:53.000Z</time>
      </trkpt>
      <trkpt lat="33.438642" lon="-111.94382">
        <ele>360.063074</ele>
        <time>2024-04-28T08:05:59.000Z</time>
      </trkpt>
      <trkpt lat="33.438268" lon="-111.943671">
        <ele>359.20394</ele>
        <time>2024-04-28T08:06:03.000Z</time>
      </trkpt>
      <trkpt lat="33.43822" lon="-111.943651">
        <ele>359.095127</ele>
        <time>2024-04-28T08:06:04.000Z</time>
      </trkpt>
      <trkpt lat="33.438124" lon="-111.943634">
        <ele>358.890444</ele>
        <time>2024-04-28T08:06:05.000Z</time>
      </trkpt>
      <trkpt lat="33.43765" lon="-111.943464">
        <ele>357.836142</ele>
        <time>2024-04-28T08:06:11.000Z</time>
      </trkpt>
      <trkpt lat="33.437498" lon="-111.94342">
        <ele>357.519662</ele>
        <time>2024-04-28T08:06:13.000Z</time>
      </trkpt>
      <trkpt lat="33.437381" lon="-111.943393">
        <ele>357.266895</ele>
        <time>2024-04-28T08:06:14.000Z</time>
      </trkpt>
      <trkpt lat="33.436161" lon="-111.942973">
        <ele>353.959037</ele>
        <time>2024-04-28T08:06:28.000Z</time>
      </trkpt>
      <trkpt lat="33.435587" lon="-111.942727">
        <ele>352.232221</ele>
        <time>2024-04-28T08:06:35.000Z</time>
      </trkpt>
      <trkpt lat="33.435466" lon="-111.942662">
        <ele>351.856015</ele>
        <time>2024-04-28T08:06:36.000Z</time>
      </trkpt>
      <trkpt lat="33.435113" lon="-111.942507">
        <ele>351.043193</ele>
        <time>2024-04-28T08:06:40.000Z</time>
      </trkpt>
      <trkpt lat="33.434225" lon="-111.942089">
        <ele>350.097437</ele>
        <time>2024-04-28T08:06:51.000Z</time>
      </trkpt>
      <trkpt lat="33.433361" lon="-111.941594">
        <ele>349.447216</ele>
        <time>2024-04-28T08:07:02.000Z</time>
      </trkpt>
      <trkpt lat="33.43232" lon="-111.940977">
        <ele>349.77559</ele>
        <time>2024-04-28T08:07:15.000Z</time>
      </trkpt>
      <trkpt lat="33.431559" lon="-111.940575">
        <ele>350.250972</ele>
        <time>2024-04-28T08:07:24.000Z</time>
      </trkpt>
      <trkpt lat="33.431312" lon="-111.940474">
        <ele>350.458821</ele>
        <time>2024-04-28T08:07:27.000Z</time>
      </trkpt>
      <trkpt lat="33.430315" lon="-111.940149">
        <ele>351.290396</ele>
        <time>2024-04-28T08:07:38.000Z</time>
      </trkpt>
      <trkpt lat="33.430212" lon="-111.940138">
        <ele>351.365095</ele>
        <time>2024-04-28T08:07:39.000Z</time>
      </trkpt>
      <trkpt lat="33.429741" lon="-111.940095">
        <ele>351.575071</ele>
        <time>2024-04-28T08:07:44.000Z</time>
      </trkpt>
      <trkpt lat="33.429671" lon="-111.940082">
        <ele>351.603913</ele>
        <time>2024-04-28T08:07:45.000Z</time>
      </trkpt>
      <trkpt lat="33.429653" lon="-111.94018">
        <ele>351.639763</ele>
        <time>2024-04-28T08:07:46.000Z</time>
      </trkpt>
      <trkpt lat="33.429593" lon="-111.940915">
        <ele>351.910214</ele>
        <time>2024-04-28T08:07:53.000Z</time>
      </trkpt>
      <trkpt lat="33.429536" lon="-111.941565">
        <ele>352.123581</ele>
        <time>2024-04-28T08:07:59.000Z</time>
      </trkpt>
      <trkpt lat="33.429534" lon="-111.942075">
        <ele>351.841369</ele>
        <time>2024-04-28T08:08:04.000Z</time>
      </trkpt>
      <trkpt lat="33.429528" lon="-111.942703">
        <ele>351.495192</ele>
        <time>2024-04-28T08:08:10.000Z</time>
      </trkpt>
      <trkpt lat="33.42957" lon="-111.942804">
        <ele>351.438498</ele>
        <time>2024-04-28T08:08:11.000Z</time>
      </trkpt>
      <trkpt lat="33.429617" lon="-111.942856">
        <ele>351.400771</ele>
        <time>2024-04-28T08:08:12.000Z</time>
      </trkpt>
      <trkpt lat="33.429836" lon="-111.943045">
        <ele>351.223165</ele>
        <time>2024-04-28T08:08:15.000Z</time>
      </trkpt>
      <trkpt lat="33.430217" lon="-111.943185">
        <ele>350.961748</ele>
        <time>2024-04-28T08:08:19.000Z</time>
      </trkpt>
      <trkpt lat="33.430323" lon="-111.943207">
        <ele>350.865777</ele>
        <time>2024-04-28T08:08:20.000Z</time>
      </trkpt>
      <trkpt lat="33.430916" lon="-111.943239">
        <ele>350.318196</ele>
        <time>2024-04-28T08:08:27.000Z</time>
      </trkpt>
      <trkpt lat="33.431508" lon="-111.943286">
        <ele>349.785558</ele>
        <time>2024-04-28T08:08:34.000Z</time>
      </trkpt>
      <trkpt lat="33.431629" lon="-111.943417">
        <ele>349.636666</ele>
        <time>2024-04-28T08:08:36.000Z</time>
      </trkpt>
      <trkpt lat="33.431597" lon="-111.944521">
        <ele>349.24104478</ele>
        <time>2024-04-28T08:08:46.000Z</time>
      </trkpt>
      <trkpt lat="33.431514" lon="-111.945081">
        <ele>349.037349784</ele>
        <time>2024-04-28T08:08:51.000Z</time>
      </trkpt>
      <trkpt lat="33.431503" lon="-111.945075">
        <ele>349.032163168</ele>
        <time>2024-04-28T08:08:51.000Z</time>
      </trkpt>
    </trkseg>
  </trk>
</gpx>

<!--
Performance optimized by W3 Total Cache. Learn more: https://www.boldgrid.com/w3-total-cache/?utm_source=w3tc&utm_medium=footer_comment&utm_campaign=free_plugin

Page Caching using Disk: Enhanced{w3tc_pagecache_reject_reason} 

Served from: www.aquabike.world @ 2026-05-10 12:22:29 by W3 Total Cache
-->